<?xml version="1.0" encoding="UTF-8" standalone="no" ?>
<gpx xmlns="http://www.topografix.com/GPX/1/1" xmlns:xsi="http://www.w3.org/2001/XMLSchema-instance" xsi:schemaLocation="http://www.topografix.com/GPX/1/1 http://www.topografix.com/GPX/1/1/gpx.xsd" version="1.1" creator="VisuGPX - https://www.visugpx.com">
  <metadata>
    <name>22.05.18 parné maisoncelles</name>
    <desc><![CDATA[mardi 22 mai 2018, seul parné - maisoncelles - entrammes]]></desc>
  </metadata>
  <trk>
    <name><![CDATA[180522171106 on GPSies.com]]></name>
    <trkseg>
      <trkpt lat="48.00108" lon="-0.71329">
        <ele>57.4</ele>
        <time>2018-05-22T18:11:14Z</time>
      </trkpt>
      <trkpt lat="48.00124" lon="-0.71326">
        <ele>58.7</ele>
        <time>2018-05-22T18:11:18Z</time>
      </trkpt>
      <trkpt lat="48.0014" lon="-0.71314">
        <ele>59.4</ele>
        <time>2018-05-22T18:11:22Z</time>
      </trkpt>
      <trkpt lat="48.00148" lon="-0.71298">
        <ele>60.6</ele>
        <time>2018-05-22T18:11:26Z</time>
      </trkpt>
      <trkpt lat="48.00156" lon="-0.71283">
        <ele>61.8</ele>
        <time>2018-05-22T18:11:30Z</time>
      </trkpt>
      <trkpt lat="48.00164" lon="-0.71271">
        <ele>62.2</ele>
        <time>2018-05-22T18:11:34Z</time>
      </trkpt>
      <trkpt lat="48.00172" lon="-0.71259">
        <ele>62.9</ele>
        <time>2018-05-22T18:11:38Z</time>
      </trkpt>
      <trkpt lat="48.0018" lon="-0.71248">
        <ele>63.5</ele>
        <time>2018-05-22T18:11:42Z</time>
      </trkpt>
      <trkpt lat="48.00188" lon="-0.71237">
        <ele>63.9</ele>
        <time>2018-05-22T18:11:46Z</time>
      </trkpt>
      <trkpt lat="48.00196" lon="-0.71226">
        <ele>64</ele>
        <time>2018-05-22T18:11:50Z</time>
      </trkpt>
      <trkpt lat="48.00204" lon="-0.71215">
        <ele>64.6</ele>
        <time>2018-05-22T18:11:54Z</time>
      </trkpt>
      <trkpt lat="48.00214" lon="-0.71202">
        <ele>65.4</ele>
        <time>2018-05-22T18:11:58Z</time>
      </trkpt>
      <trkpt lat="48.00224" lon="-0.71187">
        <ele>65.8</ele>
        <time>2018-05-22T18:12:02Z</time>
      </trkpt>
      <trkpt lat="48.00234" lon="-0.71172">
        <ele>65.6</ele>
        <time>2018-05-22T18:12:06Z</time>
      </trkpt>
      <trkpt lat="48.00246" lon="-0.71156">
        <ele>66.3</ele>
        <time>2018-05-22T18:12:10Z</time>
      </trkpt>
      <trkpt lat="48.00257" lon="-0.71139">
        <ele>67.2</ele>
        <time>2018-05-22T18:12:14Z</time>
      </trkpt>
      <trkpt lat="48.00267" lon="-0.71124">
        <ele>67.6</ele>
        <time>2018-05-22T18:12:18Z</time>
      </trkpt>
      <trkpt lat="48.00276" lon="-0.71109">
        <ele>68</ele>
        <time>2018-05-22T18:12:22Z</time>
      </trkpt>
      <trkpt lat="48.00286" lon="-0.71093">
        <ele>68</ele>
        <time>2018-05-22T18:12:26Z</time>
      </trkpt>
      <trkpt lat="48.00296" lon="-0.71077">
        <ele>68.1</ele>
        <time>2018-05-22T18:12:30Z</time>
      </trkpt>
      <trkpt lat="48.00307" lon="-0.71062">
        <ele>68.7</ele>
        <time>2018-05-22T18:12:34Z</time>
      </trkpt>
      <trkpt lat="48.0032" lon="-0.71044">
        <ele>68.5</ele>
        <time>2018-05-22T18:12:38Z</time>
      </trkpt>
      <trkpt lat="48.00335" lon="-0.71022">
        <ele>67.9</ele>
        <time>2018-05-22T18:12:42Z</time>
      </trkpt>
      <trkpt lat="48.00355" lon="-0.70995">
        <ele>66.5</ele>
        <time>2018-05-22T18:12:46Z</time>
      </trkpt>
      <trkpt lat="48.00371" lon="-0.70971">
        <ele>65.3</ele>
        <time>2018-05-22T18:12:50Z</time>
      </trkpt>
      <trkpt lat="48.00391" lon="-0.70938">
        <ele>62.6</ele>
        <time>2018-05-22T18:12:54Z</time>
      </trkpt>
      <trkpt lat="48.00417" lon="-0.709">
        <ele>61.6</ele>
        <time>2018-05-22T18:12:58Z</time>
      </trkpt>
      <trkpt lat="48.00446" lon="-0.70856">
        <ele>59.9</ele>
        <time>2018-05-22T18:13:02Z</time>
      </trkpt>
      <trkpt lat="48.0045" lon="-0.70812">
        <ele>60.4</ele>
        <time>2018-05-22T18:13:06Z</time>
      </trkpt>
      <trkpt lat="48.00435" lon="-0.70786">
        <ele>62</ele>
        <time>2018-05-22T18:13:10Z</time>
      </trkpt>
      <trkpt lat="48.00418" lon="-0.70767">
        <ele>64.6</ele>
        <time>2018-05-22T18:13:14Z</time>
      </trkpt>
      <trkpt lat="48.004" lon="-0.70752">
        <ele>66.3</ele>
        <time>2018-05-22T18:13:18Z</time>
      </trkpt>
      <trkpt lat="48.00384" lon="-0.7074">
        <ele>67.3</ele>
        <time>2018-05-22T18:13:22Z</time>
      </trkpt>
      <trkpt lat="48.0037" lon="-0.70729">
        <ele>68.2</ele>
        <time>2018-05-22T18:13:26Z</time>
      </trkpt>
      <trkpt lat="48.00359" lon="-0.70719">
        <ele>70.4</ele>
        <time>2018-05-22T18:13:30Z</time>
      </trkpt>
      <trkpt lat="48.00349" lon="-0.70714">
        <ele>71.6</ele>
        <time>2018-05-22T18:13:34Z</time>
      </trkpt>
      <trkpt lat="48.0034" lon="-0.70705">
        <ele>72.6</ele>
        <time>2018-05-22T18:13:38Z</time>
      </trkpt>
      <trkpt lat="48.0033" lon="-0.70697">
        <ele>73.2</ele>
        <time>2018-05-22T18:13:42Z</time>
      </trkpt>
      <trkpt lat="48.00321" lon="-0.70687">
        <ele>73.7</ele>
        <time>2018-05-22T18:13:46Z</time>
      </trkpt>
      <trkpt lat="48.00316" lon="-0.7067">
        <ele>73.7</ele>
        <time>2018-05-22T18:13:50Z</time>
      </trkpt>
      <trkpt lat="48.00319" lon="-0.70647">
        <ele>73.1</ele>
        <time>2018-05-22T18:13:54Z</time>
      </trkpt>
      <trkpt lat="48.00331" lon="-0.70621">
        <ele>71.8</ele>
        <time>2018-05-22T18:13:58Z</time>
      </trkpt>
      <trkpt lat="48.00347" lon="-0.70592">
        <ele>70.2</ele>
        <time>2018-05-22T18:14:02Z</time>
      </trkpt>
      <trkpt lat="48.00366" lon="-0.70559">
        <ele>69</ele>
        <time>2018-05-22T18:14:06Z</time>
      </trkpt>
      <trkpt lat="48.00388" lon="-0.70526">
        <ele>67</ele>
        <time>2018-05-22T18:14:10Z</time>
      </trkpt>
      <trkpt lat="48.0041" lon="-0.70489">
        <ele>65.7</ele>
        <time>2018-05-22T18:14:14Z</time>
      </trkpt>
      <trkpt lat="48.00434" lon="-0.70452">
        <ele>64.4</ele>
        <time>2018-05-22T18:14:18Z</time>
      </trkpt>
      <trkpt lat="48.00459" lon="-0.70418">
        <ele>63</ele>
        <time>2018-05-22T18:14:22Z</time>
      </trkpt>
      <trkpt lat="48.00486" lon="-0.70389">
        <ele>61.5</ele>
        <time>2018-05-22T18:14:26Z</time>
      </trkpt>
      <trkpt lat="48.00515" lon="-0.70352">
        <ele>58.5</ele>
        <time>2018-05-22T18:14:30Z</time>
      </trkpt>
      <trkpt lat="48.00541" lon="-0.70307">
        <ele>57.9</ele>
        <time>2018-05-22T18:14:34Z</time>
      </trkpt>
      <trkpt lat="48.00562" lon="-0.70269">
        <ele>58.6</ele>
        <time>2018-05-22T18:14:38Z</time>
      </trkpt>
      <trkpt lat="48.00577" lon="-0.70235">
        <ele>60.3</ele>
        <time>2018-05-22T18:14:42Z</time>
      </trkpt>
      <trkpt lat="48.00589" lon="-0.70212">
        <ele>61.4</ele>
        <time>2018-05-22T18:14:46Z</time>
      </trkpt>
      <trkpt lat="48.00599" lon="-0.70198">
        <ele>61.9</ele>
        <time>2018-05-22T18:14:50Z</time>
      </trkpt>
      <trkpt lat="48.00606" lon="-0.70189">
        <ele>62.4</ele>
        <time>2018-05-22T18:14:54Z</time>
      </trkpt>
      <trkpt lat="48.0061" lon="-0.70185">
        <ele>62.7</ele>
        <time>2018-05-22T18:14:58Z</time>
      </trkpt>
      <trkpt lat="48.00613" lon="-0.7018">
        <ele>63.1</ele>
        <time>2018-05-22T18:15:02Z</time>
      </trkpt>
      <trkpt lat="48.0062" lon="-0.70171">
        <ele>64</ele>
        <time>2018-05-22T18:15:06Z</time>
      </trkpt>
      <trkpt lat="48.00626" lon="-0.70162">
        <ele>64.9</ele>
        <time>2018-05-22T18:15:10Z</time>
      </trkpt>
      <trkpt lat="48.00633" lon="-0.70151">
        <ele>65.9</ele>
        <time>2018-05-22T18:15:14Z</time>
      </trkpt>
      <trkpt lat="48.0064" lon="-0.70138">
        <ele>67.1</ele>
        <time>2018-05-22T18:15:18Z</time>
      </trkpt>
      <trkpt lat="48.00647" lon="-0.70126">
        <ele>68.5</ele>
        <time>2018-05-22T18:15:22Z</time>
      </trkpt>
      <trkpt lat="48.00653" lon="-0.70117">
        <ele>69.6</ele>
        <time>2018-05-22T18:15:26Z</time>
      </trkpt>
      <trkpt lat="48.00658" lon="-0.70107">
        <ele>70.6</ele>
        <time>2018-05-22T18:15:30Z</time>
      </trkpt>
      <trkpt lat="48.00662" lon="-0.70096">
        <ele>71.3</ele>
        <time>2018-05-22T18:15:34Z</time>
      </trkpt>
      <trkpt lat="48.00664" lon="-0.70087">
        <ele>71.8</ele>
        <time>2018-05-22T18:15:38Z</time>
      </trkpt>
      <trkpt lat="48.00668" lon="-0.70079">
        <ele>72.6</ele>
        <time>2018-05-22T18:15:42Z</time>
      </trkpt>
      <trkpt lat="48.00671" lon="-0.70069">
        <ele>73.8</ele>
        <time>2018-05-22T18:15:46Z</time>
      </trkpt>
      <trkpt lat="48.00674" lon="-0.70062">
        <ele>75</ele>
        <time>2018-05-22T18:15:50Z</time>
      </trkpt>
      <trkpt lat="48.00676" lon="-0.70054">
        <ele>75.9</ele>
        <time>2018-05-22T18:15:54Z</time>
      </trkpt>
      <trkpt lat="48.00679" lon="-0.70047">
        <ele>77.1</ele>
        <time>2018-05-22T18:15:58Z</time>
      </trkpt>
      <trkpt lat="48.00682" lon="-0.7004">
        <ele>78.2</ele>
        <time>2018-05-22T18:16:02Z</time>
      </trkpt>
      <trkpt lat="48.00686" lon="-0.70033">
        <ele>79.4</ele>
        <time>2018-05-22T18:16:06Z</time>
      </trkpt>
      <trkpt lat="48.0069" lon="-0.70024">
        <ele>80.5</ele>
        <time>2018-05-22T18:16:10Z</time>
      </trkpt>
      <trkpt lat="48.00692" lon="-0.70017">
        <ele>81.1</ele>
        <time>2018-05-22T18:16:14Z</time>
      </trkpt>
      <trkpt lat="48.00696" lon="-0.70009">
        <ele>81.7</ele>
        <time>2018-05-22T18:16:18Z</time>
      </trkpt>
      <trkpt lat="48.00698" lon="-0.70003">
        <ele>82</ele>
        <time>2018-05-22T18:16:22Z</time>
      </trkpt>
      <trkpt lat="48.00703" lon="-0.69997">
        <ele>82.4</ele>
        <time>2018-05-22T18:16:26Z</time>
      </trkpt>
      <trkpt lat="48.00707" lon="-0.69992">
        <ele>82.6</ele>
        <time>2018-05-22T18:16:30Z</time>
      </trkpt>
      <trkpt lat="48.00713" lon="-0.69985">
        <ele>82.8</ele>
        <time>2018-05-22T18:16:34Z</time>
      </trkpt>
      <trkpt lat="48.00718" lon="-0.69976">
        <ele>83</ele>
        <time>2018-05-22T18:16:38Z</time>
      </trkpt>
      <trkpt lat="48.00726" lon="-0.69963">
        <ele>83.3</ele>
        <time>2018-05-22T18:16:42Z</time>
      </trkpt>
      <trkpt lat="48.00732" lon="-0.69949">
        <ele>83.8</ele>
        <time>2018-05-22T18:16:46Z</time>
      </trkpt>
      <trkpt lat="48.00736" lon="-0.69933">
        <ele>84.4</ele>
        <time>2018-05-22T18:16:50Z</time>
      </trkpt>
      <trkpt lat="48.0074" lon="-0.69918">
        <ele>84.9</ele>
        <time>2018-05-22T18:16:54Z</time>
      </trkpt>
      <trkpt lat="48.00744" lon="-0.69902">
        <ele>85.5</ele>
        <time>2018-05-22T18:16:58Z</time>
      </trkpt>
      <trkpt lat="48.00749" lon="-0.69886">
        <ele>86</ele>
        <time>2018-05-22T18:17:02Z</time>
      </trkpt>
      <trkpt lat="48.00755" lon="-0.6987">
        <ele>86.1</ele>
        <time>2018-05-22T18:17:06Z</time>
      </trkpt>
      <trkpt lat="48.00761" lon="-0.69853">
        <ele>86.7</ele>
        <time>2018-05-22T18:17:10Z</time>
      </trkpt>
      <trkpt lat="48.00767" lon="-0.69838">
        <ele>87.4</ele>
        <time>2018-05-22T18:17:14Z</time>
      </trkpt>
      <trkpt lat="48.00774" lon="-0.69824">
        <ele>87.9</ele>
        <time>2018-05-22T18:17:18Z</time>
      </trkpt>
      <trkpt lat="48.00782" lon="-0.69813">
        <ele>88.1</ele>
        <time>2018-05-22T18:17:22Z</time>
      </trkpt>
      <trkpt lat="48.00789" lon="-0.698">
        <ele>88.6</ele>
        <time>2018-05-22T18:17:26Z</time>
      </trkpt>
      <trkpt lat="48.00794" lon="-0.69785">
        <ele>89.3</ele>
        <time>2018-05-22T18:17:30Z</time>
      </trkpt>
      <trkpt lat="48.00801" lon="-0.69768">
        <ele>90.2</ele>
        <time>2018-05-22T18:17:34Z</time>
      </trkpt>
      <trkpt lat="48.00806" lon="-0.69753">
        <ele>90.9</ele>
        <time>2018-05-22T18:17:38Z</time>
      </trkpt>
      <trkpt lat="48.00814" lon="-0.6974">
        <ele>91.1</ele>
        <time>2018-05-22T18:17:42Z</time>
      </trkpt>
      <trkpt lat="48.00822" lon="-0.69732">
        <ele>91.4</ele>
        <time>2018-05-22T18:17:46Z</time>
      </trkpt>
      <trkpt lat="48.0083" lon="-0.69725">
        <ele>91.8</ele>
        <time>2018-05-22T18:17:50Z</time>
      </trkpt>
      <trkpt lat="48.00836" lon="-0.69711">
        <ele>91.9</ele>
        <time>2018-05-22T18:17:54Z</time>
      </trkpt>
      <trkpt lat="48.00839" lon="-0.69696">
        <ele>92</ele>
        <time>2018-05-22T18:17:58Z</time>
      </trkpt>
      <trkpt lat="48.00842" lon="-0.69683">
        <ele>92.4</ele>
        <time>2018-05-22T18:18:02Z</time>
      </trkpt>
      <trkpt lat="48.00847" lon="-0.69665">
        <ele>93</ele>
        <time>2018-05-22T18:18:06Z</time>
      </trkpt>
      <trkpt lat="48.00853" lon="-0.69648">
        <ele>93.7</ele>
        <time>2018-05-22T18:18:10Z</time>
      </trkpt>
      <trkpt lat="48.0086" lon="-0.6963">
        <ele>94</ele>
        <time>2018-05-22T18:18:14Z</time>
      </trkpt>
      <trkpt lat="48.00867" lon="-0.69614">
        <ele>94</ele>
        <time>2018-05-22T18:18:18Z</time>
      </trkpt>
      <trkpt lat="48.00873" lon="-0.69597">
        <ele>94.5</ele>
        <time>2018-05-22T18:18:22Z</time>
      </trkpt>
      <trkpt lat="48.00876" lon="-0.69579">
        <ele>95.1</ele>
        <time>2018-05-22T18:18:26Z</time>
      </trkpt>
      <trkpt lat="48.00882" lon="-0.69561">
        <ele>95.2</ele>
        <time>2018-05-22T18:18:30Z</time>
      </trkpt>
      <trkpt lat="48.00888" lon="-0.6954">
        <ele>95.6</ele>
        <time>2018-05-22T18:18:34Z</time>
      </trkpt>
      <trkpt lat="48.00894" lon="-0.6952">
        <ele>96</ele>
        <time>2018-05-22T18:18:38Z</time>
      </trkpt>
      <trkpt lat="48.00902" lon="-0.695">
        <ele>96</ele>
        <time>2018-05-22T18:18:42Z</time>
      </trkpt>
      <trkpt lat="48.00908" lon="-0.69481">
        <ele>96.7</ele>
        <time>2018-05-22T18:18:46Z</time>
      </trkpt>
      <trkpt lat="48.00913" lon="-0.6946">
        <ele>97.1</ele>
        <time>2018-05-22T18:18:50Z</time>
      </trkpt>
      <trkpt lat="48.0092" lon="-0.69437">
        <ele>97</ele>
        <time>2018-05-22T18:18:54Z</time>
      </trkpt>
      <trkpt lat="48.00927" lon="-0.69413">
        <ele>97.1</ele>
        <time>2018-05-22T18:18:58Z</time>
      </trkpt>
      <trkpt lat="48.00935" lon="-0.69388">
        <ele>97.3</ele>
        <time>2018-05-22T18:19:02Z</time>
      </trkpt>
      <trkpt lat="48.00943" lon="-0.69364">
        <ele>97.9</ele>
        <time>2018-05-22T18:19:06Z</time>
      </trkpt>
      <trkpt lat="48.0095" lon="-0.69341">
        <ele>97.8</ele>
        <time>2018-05-22T18:19:10Z</time>
      </trkpt>
      <trkpt lat="48.0096" lon="-0.69317">
        <ele>97.4</ele>
        <time>2018-05-22T18:19:14Z</time>
      </trkpt>
      <trkpt lat="48.00971" lon="-0.69289">
        <ele>97.1</ele>
        <time>2018-05-22T18:19:18Z</time>
      </trkpt>
      <trkpt lat="48.00977" lon="-0.69258">
        <ele>96.8</ele>
        <time>2018-05-22T18:19:22Z</time>
      </trkpt>
      <trkpt lat="48.00981" lon="-0.69224">
        <ele>96.7</ele>
        <time>2018-05-22T18:19:26Z</time>
      </trkpt>
      <trkpt lat="48.00989" lon="-0.69189">
        <ele>96.4</ele>
        <time>2018-05-22T18:19:30Z</time>
      </trkpt>
      <trkpt lat="48.00997" lon="-0.69152">
        <ele>95.6</ele>
        <time>2018-05-22T18:19:34Z</time>
      </trkpt>
      <trkpt lat="48.01005" lon="-0.69115">
        <ele>94.8</ele>
        <time>2018-05-22T18:19:38Z</time>
      </trkpt>
      <trkpt lat="48.01014" lon="-0.69078">
        <ele>94.5</ele>
        <time>2018-05-22T18:19:42Z</time>
      </trkpt>
      <trkpt lat="48.01022" lon="-0.69039">
        <ele>94.2</ele>
        <time>2018-05-22T18:19:46Z</time>
      </trkpt>
      <trkpt lat="48.01028" lon="-0.69">
        <ele>94</ele>
        <time>2018-05-22T18:19:50Z</time>
      </trkpt>
      <trkpt lat="48.01033" lon="-0.68962">
        <ele>93.8</ele>
        <time>2018-05-22T18:19:54Z</time>
      </trkpt>
      <trkpt lat="48.01038" lon="-0.68928">
        <ele>93.6</ele>
        <time>2018-05-22T18:19:58Z</time>
      </trkpt>
      <trkpt lat="48.0104" lon="-0.68892">
        <ele>93.9</ele>
        <time>2018-05-22T18:20:02Z</time>
      </trkpt>
      <trkpt lat="48.01044" lon="-0.6886">
        <ele>94</ele>
        <time>2018-05-22T18:20:06Z</time>
      </trkpt>
      <trkpt lat="48.0105" lon="-0.68827">
        <ele>94</ele>
        <time>2018-05-22T18:20:10Z</time>
      </trkpt>
      <trkpt lat="48.01054" lon="-0.68796">
        <ele>94.3</ele>
        <time>2018-05-22T18:20:14Z</time>
      </trkpt>
      <trkpt lat="48.01058" lon="-0.68764">
        <ele>94.9</ele>
        <time>2018-05-22T18:20:18Z</time>
      </trkpt>
      <trkpt lat="48.01063" lon="-0.68729">
        <ele>94.7</ele>
        <time>2018-05-22T18:20:22Z</time>
      </trkpt>
      <trkpt lat="48.01069" lon="-0.68692">
        <ele>95</ele>
        <time>2018-05-22T18:20:26Z</time>
      </trkpt>
      <trkpt lat="48.01074" lon="-0.68656">
        <ele>95</ele>
        <time>2018-05-22T18:20:30Z</time>
      </trkpt>
      <trkpt lat="48.01078" lon="-0.68623">
        <ele>95</ele>
        <time>2018-05-22T18:20:34Z</time>
      </trkpt>
      <trkpt lat="48.01082" lon="-0.68589">
        <ele>95</ele>
        <time>2018-05-22T18:20:38Z</time>
      </trkpt>
      <trkpt lat="48.01086" lon="-0.68557">
        <ele>95</ele>
        <time>2018-05-22T18:20:42Z</time>
      </trkpt>
      <trkpt lat="48.01091" lon="-0.68524">
        <ele>95</ele>
        <time>2018-05-22T18:20:46Z</time>
      </trkpt>
      <trkpt lat="48.01095" lon="-0.68484">
        <ele>95</ele>
        <time>2018-05-22T18:20:50Z</time>
      </trkpt>
      <trkpt lat="48.01097" lon="-0.68445">
        <ele>94.5</ele>
        <time>2018-05-22T18:20:54Z</time>
      </trkpt>
      <trkpt lat="48.01097" lon="-0.68407">
        <ele>94</ele>
        <time>2018-05-22T18:20:58Z</time>
      </trkpt>
      <trkpt lat="48.01098" lon="-0.68369">
        <ele>94</ele>
        <time>2018-05-22T18:21:02Z</time>
      </trkpt>
      <trkpt lat="48.01098" lon="-0.68329">
        <ele>93.5</ele>
        <time>2018-05-22T18:21:06Z</time>
      </trkpt>
      <trkpt lat="48.01098" lon="-0.68289">
        <ele>92.7</ele>
        <time>2018-05-22T18:21:10Z</time>
      </trkpt>
      <trkpt lat="48.01099" lon="-0.68248">
        <ele>92.5</ele>
        <time>2018-05-22T18:21:14Z</time>
      </trkpt>
      <trkpt lat="48.011" lon="-0.68212">
        <ele>91.6</ele>
        <time>2018-05-22T18:21:18Z</time>
      </trkpt>
      <trkpt lat="48.01105" lon="-0.68172">
        <ele>91.1</ele>
        <time>2018-05-22T18:21:22Z</time>
      </trkpt>
      <trkpt lat="48.01111" lon="-0.6813">
        <ele>90.7</ele>
        <time>2018-05-22T18:21:26Z</time>
      </trkpt>
      <trkpt lat="48.01117" lon="-0.68088">
        <ele>89.4</ele>
        <time>2018-05-22T18:21:30Z</time>
      </trkpt>
      <trkpt lat="48.0112" lon="-0.68045">
        <ele>88.9</ele>
        <time>2018-05-22T18:21:34Z</time>
      </trkpt>
      <trkpt lat="48.01118" lon="-0.68001">
        <ele>87.3</ele>
        <time>2018-05-22T18:21:38Z</time>
      </trkpt>
      <trkpt lat="48.01117" lon="-0.67956">
        <ele>85.6</ele>
        <time>2018-05-22T18:21:42Z</time>
      </trkpt>
      <trkpt lat="48.01114" lon="-0.67913">
        <ele>85</ele>
        <time>2018-05-22T18:21:46Z</time>
      </trkpt>
      <trkpt lat="48.01109" lon="-0.67875">
        <ele>85.5</ele>
        <time>2018-05-22T18:21:50Z</time>
      </trkpt>
      <trkpt lat="48.01108" lon="-0.6784">
        <ele>86.1</ele>
        <time>2018-05-22T18:21:54Z</time>
      </trkpt>
      <trkpt lat="48.01107" lon="-0.67808">
        <ele>86.9</ele>
        <time>2018-05-22T18:21:58Z</time>
      </trkpt>
      <trkpt lat="48.01109" lon="-0.67776">
        <ele>87.1</ele>
        <time>2018-05-22T18:22:02Z</time>
      </trkpt>
      <trkpt lat="48.01113" lon="-0.67746">
        <ele>88</ele>
        <time>2018-05-22T18:22:06Z</time>
      </trkpt>
      <trkpt lat="48.01117" lon="-0.67719">
        <ele>87.9</ele>
        <time>2018-05-22T18:22:10Z</time>
      </trkpt>
      <trkpt lat="48.01121" lon="-0.67686">
        <ele>87.2</ele>
        <time>2018-05-22T18:22:14Z</time>
      </trkpt>
      <trkpt lat="48.01124" lon="-0.67649">
        <ele>86.6</ele>
        <time>2018-05-22T18:22:18Z</time>
      </trkpt>
      <trkpt lat="48.01126" lon="-0.67611">
        <ele>86.5</ele>
        <time>2018-05-22T18:22:22Z</time>
      </trkpt>
      <trkpt lat="48.01129" lon="-0.67576">
        <ele>86.6</ele>
        <time>2018-05-22T18:22:26Z</time>
      </trkpt>
      <trkpt lat="48.01132" lon="-0.67543">
        <ele>86.5</ele>
        <time>2018-05-22T18:22:30Z</time>
      </trkpt>
      <trkpt lat="48.01137" lon="-0.67512">
        <ele>86.9</ele>
        <time>2018-05-22T18:22:34Z</time>
      </trkpt>
      <trkpt lat="48.01142" lon="-0.67482">
        <ele>87.2</ele>
        <time>2018-05-22T18:22:38Z</time>
      </trkpt>
      <trkpt lat="48.01144" lon="-0.67455">
        <ele>87.5</ele>
        <time>2018-05-22T18:22:42Z</time>
      </trkpt>
      <trkpt lat="48.01154" lon="-0.67431">
        <ele>88.6</ele>
        <time>2018-05-22T18:22:46Z</time>
      </trkpt>
      <trkpt lat="48.01162" lon="-0.67406">
        <ele>89.2</ele>
        <time>2018-05-22T18:22:50Z</time>
      </trkpt>
      <trkpt lat="48.01167" lon="-0.67383">
        <ele>89</ele>
        <time>2018-05-22T18:22:54Z</time>
      </trkpt>
      <trkpt lat="48.01171" lon="-0.67357">
        <ele>88.9</ele>
        <time>2018-05-22T18:22:58Z</time>
      </trkpt>
      <trkpt lat="48.0117" lon="-0.67332">
        <ele>88.1</ele>
        <time>2018-05-22T18:23:02Z</time>
      </trkpt>
      <trkpt lat="48.01172" lon="-0.67299">
        <ele>88</ele>
        <time>2018-05-22T18:23:06Z</time>
      </trkpt>
      <trkpt lat="48.01172" lon="-0.67264">
        <ele>87.1</ele>
        <time>2018-05-22T18:23:10Z</time>
      </trkpt>
      <trkpt lat="48.01174" lon="-0.67233">
        <ele>85.9</ele>
        <time>2018-05-22T18:23:14Z</time>
      </trkpt>
      <trkpt lat="48.0118" lon="-0.67202">
        <ele>84.4</ele>
        <time>2018-05-22T18:23:18Z</time>
      </trkpt>
      <trkpt lat="48.0118" lon="-0.67185">
        <ele>83.5</ele>
        <time>2018-05-22T18:23:22Z</time>
      </trkpt>
      <trkpt lat="48.01171" lon="-0.67181">
        <ele>83.4</ele>
        <time>2018-05-22T18:23:26Z</time>
      </trkpt>
      <trkpt lat="48.01154" lon="-0.67176">
        <ele>83.3</ele>
        <time>2018-05-22T18:23:30Z</time>
      </trkpt>
      <trkpt lat="48.01134" lon="-0.67171">
        <ele>83</ele>
        <time>2018-05-22T18:23:34Z</time>
      </trkpt>
      <trkpt lat="48.01112" lon="-0.67162">
        <ele>81.9</ele>
        <time>2018-05-22T18:23:38Z</time>
      </trkpt>
      <trkpt lat="48.01101" lon="-0.67171">
        <ele>82.2</ele>
        <time>2018-05-22T18:23:42Z</time>
      </trkpt>
      <trkpt lat="48.01095" lon="-0.67182">
        <ele>82.5</ele>
        <time>2018-05-22T18:23:46Z</time>
      </trkpt>
      <trkpt lat="48.01086" lon="-0.67198">
        <ele>83.3</ele>
        <time>2018-05-22T18:23:50Z</time>
      </trkpt>
      <trkpt lat="48.01074" lon="-0.67219">
        <ele>84.8</ele>
        <time>2018-05-22T18:23:54Z</time>
      </trkpt>
      <trkpt lat="48.01064" lon="-0.67239">
        <ele>85.2</ele>
        <time>2018-05-22T18:23:58Z</time>
      </trkpt>
      <trkpt lat="48.01054" lon="-0.6726">
        <ele>85.3</ele>
        <time>2018-05-22T18:24:02Z</time>
      </trkpt>
      <trkpt lat="48.01044" lon="-0.6728">
        <ele>85.6</ele>
        <time>2018-05-22T18:24:06Z</time>
      </trkpt>
      <trkpt lat="48.01029" lon="-0.67281">
        <ele>85.1</ele>
        <time>2018-05-22T18:24:10Z</time>
      </trkpt>
      <trkpt lat="48.01016" lon="-0.67267">
        <ele>85.2</ele>
        <time>2018-05-22T18:24:14Z</time>
      </trkpt>
      <trkpt lat="48.01" lon="-0.67253">
        <ele>85.9</ele>
        <time>2018-05-22T18:24:18Z</time>
      </trkpt>
      <trkpt lat="48.00984" lon="-0.67242">
        <ele>86.2</ele>
        <time>2018-05-22T18:24:22Z</time>
      </trkpt>
      <trkpt lat="48.0097" lon="-0.67231">
        <ele>86.7</ele>
        <time>2018-05-22T18:24:26Z</time>
      </trkpt>
      <trkpt lat="48.00956" lon="-0.6722">
        <ele>87</ele>
        <time>2018-05-22T18:24:30Z</time>
      </trkpt>
      <trkpt lat="48.00941" lon="-0.67207">
        <ele>87.4</ele>
        <time>2018-05-22T18:24:34Z</time>
      </trkpt>
      <trkpt lat="48.00927" lon="-0.67194">
        <ele>87.4</ele>
        <time>2018-05-22T18:24:38Z</time>
      </trkpt>
      <trkpt lat="48.00911" lon="-0.67177">
        <ele>87.6</ele>
        <time>2018-05-22T18:24:42Z</time>
      </trkpt>
      <trkpt lat="48.00896" lon="-0.6716">
        <ele>88</ele>
        <time>2018-05-22T18:24:46Z</time>
      </trkpt>
      <trkpt lat="48.00881" lon="-0.67143">
        <ele>88</ele>
        <time>2018-05-22T18:24:50Z</time>
      </trkpt>
      <trkpt lat="48.00865" lon="-0.67133">
        <ele>88.2</ele>
        <time>2018-05-22T18:24:54Z</time>
      </trkpt>
      <trkpt lat="48.00857" lon="-0.67112">
        <ele>89</ele>
        <time>2018-05-22T18:24:58Z</time>
      </trkpt>
      <trkpt lat="48.00846" lon="-0.67089">
        <ele>88.6</ele>
        <time>2018-05-22T18:25:02Z</time>
      </trkpt>
      <trkpt lat="48.0083" lon="-0.67065">
        <ele>88.3</ele>
        <time>2018-05-22T18:25:06Z</time>
      </trkpt>
      <trkpt lat="48.0081" lon="-0.67042">
        <ele>87.6</ele>
        <time>2018-05-22T18:25:10Z</time>
      </trkpt>
      <trkpt lat="48.00786" lon="-0.6702">
        <ele>85.8</ele>
        <time>2018-05-22T18:25:14Z</time>
      </trkpt>
      <trkpt lat="48.00761" lon="-0.67011">
        <ele>83.6</ele>
        <time>2018-05-22T18:25:18Z</time>
      </trkpt>
      <trkpt lat="48.00732" lon="-0.67009">
        <ele>81.8</ele>
        <time>2018-05-22T18:25:22Z</time>
      </trkpt>
      <trkpt lat="48.00702" lon="-0.67005">
        <ele>81.2</ele>
        <time>2018-05-22T18:25:26Z</time>
      </trkpt>
      <trkpt lat="48.0067" lon="-0.67003">
        <ele>81</ele>
        <time>2018-05-22T18:25:30Z</time>
      </trkpt>
      <trkpt lat="48.00648" lon="-0.66999">
        <ele>79</ele>
        <time>2018-05-22T18:25:34Z</time>
      </trkpt>
      <trkpt lat="48.00624" lon="-0.66994">
        <ele>76.1</ele>
        <time>2018-05-22T18:25:38Z</time>
      </trkpt>
      <trkpt lat="48.00592" lon="-0.66997">
        <ele>71.5</ele>
        <time>2018-05-22T18:25:42Z</time>
      </trkpt>
      <trkpt lat="48.0056" lon="-0.66993">
        <ele>67.9</ele>
        <time>2018-05-22T18:25:46Z</time>
      </trkpt>
      <trkpt lat="48.00535" lon="-0.66988">
        <ele>64.7</ele>
        <time>2018-05-22T18:25:50Z</time>
      </trkpt>
      <trkpt lat="48.00521" lon="-0.66992">
        <ele>62.3</ele>
        <time>2018-05-22T18:25:54Z</time>
      </trkpt>
      <trkpt lat="48.00512" lon="-0.66983">
        <ele>61</ele>
        <time>2018-05-22T18:25:58Z</time>
      </trkpt>
      <trkpt lat="48.00512" lon="-0.6695">
        <ele>61.1</ele>
        <time>2018-05-22T18:26:02Z</time>
      </trkpt>
      <trkpt lat="48.00513" lon="-0.66912">
        <ele>61.3</ele>
        <time>2018-05-22T18:26:06Z</time>
      </trkpt>
      <trkpt lat="48.00511" lon="-0.66871">
        <ele>60</ele>
        <time>2018-05-22T18:26:10Z</time>
      </trkpt>
      <trkpt lat="48.00504" lon="-0.66832">
        <ele>58.3</ele>
        <time>2018-05-22T18:26:14Z</time>
      </trkpt>
      <trkpt lat="48.00484" lon="-0.66805">
        <ele>56.4</ele>
        <time>2018-05-22T18:26:18Z</time>
      </trkpt>
      <trkpt lat="48.00467" lon="-0.66786">
        <ele>56</ele>
        <time>2018-05-22T18:26:22Z</time>
      </trkpt>
      <trkpt lat="48.00457" lon="-0.66794">
        <ele>56</ele>
        <time>2018-05-22T18:26:26Z</time>
      </trkpt>
      <trkpt lat="48.00446" lon="-0.66812">
        <ele>56</ele>
        <time>2018-05-22T18:26:30Z</time>
      </trkpt>
      <trkpt lat="48.00427" lon="-0.66825">
        <ele>56.6</ele>
        <time>2018-05-22T18:26:34Z</time>
      </trkpt>
      <trkpt lat="48.00408" lon="-0.66835">
        <ele>57.6</ele>
        <time>2018-05-22T18:26:38Z</time>
      </trkpt>
      <trkpt lat="48.0039" lon="-0.66845">
        <ele>58.5</ele>
        <time>2018-05-22T18:26:42Z</time>
      </trkpt>
      <trkpt lat="48.0038" lon="-0.66864">
        <ele>58.9</ele>
        <time>2018-05-22T18:26:46Z</time>
      </trkpt>
      <trkpt lat="48.00373" lon="-0.66889">
        <ele>59.7</ele>
        <time>2018-05-22T18:26:50Z</time>
      </trkpt>
      <trkpt lat="48.00366" lon="-0.66912">
        <ele>60.5</ele>
        <time>2018-05-22T18:26:54Z</time>
      </trkpt>
      <trkpt lat="48.0036" lon="-0.66934">
        <ele>60.5</ele>
        <time>2018-05-22T18:26:58Z</time>
      </trkpt>
      <trkpt lat="48.00353" lon="-0.66954">
        <ele>60.3</ele>
        <time>2018-05-22T18:27:02Z</time>
      </trkpt>
      <trkpt lat="48.00346" lon="-0.66974">
        <ele>60.2</ele>
        <time>2018-05-22T18:27:06Z</time>
      </trkpt>
      <trkpt lat="48.00339" lon="-0.66995">
        <ele>60.2</ele>
        <time>2018-05-22T18:27:10Z</time>
      </trkpt>
      <trkpt lat="48.00332" lon="-0.67014">
        <ele>60.3</ele>
        <time>2018-05-22T18:27:14Z</time>
      </trkpt>
      <trkpt lat="48.00325" lon="-0.67039">
        <ele>60.1</ele>
        <time>2018-05-22T18:27:18Z</time>
      </trkpt>
      <trkpt lat="48.00318" lon="-0.67059">
        <ele>60.5</ele>
        <time>2018-05-22T18:27:22Z</time>
      </trkpt>
      <trkpt lat="48.00307" lon="-0.67083">
        <ele>59.8</ele>
        <time>2018-05-22T18:27:26Z</time>
      </trkpt>
      <trkpt lat="48.00292" lon="-0.67112">
        <ele>59.9</ele>
        <time>2018-05-22T18:27:30Z</time>
      </trkpt>
      <trkpt lat="48.00277" lon="-0.67137">
        <ele>59.3</ele>
        <time>2018-05-22T18:27:34Z</time>
      </trkpt>
      <trkpt lat="48.00263" lon="-0.6716">
        <ele>59.5</ele>
        <time>2018-05-22T18:27:38Z</time>
      </trkpt>
      <trkpt lat="48.0025" lon="-0.67182">
        <ele>59.3</ele>
        <time>2018-05-22T18:27:42Z</time>
      </trkpt>
      <trkpt lat="48.00237" lon="-0.67205">
        <ele>59.5</ele>
        <time>2018-05-22T18:27:46Z</time>
      </trkpt>
      <trkpt lat="48.00221" lon="-0.67215">
        <ele>60.9</ele>
        <time>2018-05-22T18:27:50Z</time>
      </trkpt>
      <trkpt lat="48.00213" lon="-0.67219">
        <ele>62</ele>
        <time>2018-05-22T18:27:54Z</time>
      </trkpt>
      <trkpt lat="48.00205" lon="-0.67223">
        <ele>63.1</ele>
        <time>2018-05-22T18:27:58Z</time>
      </trkpt>
      <trkpt lat="48.00197" lon="-0.67227">
        <ele>64.5</ele>
        <time>2018-05-22T18:28:02Z</time>
      </trkpt>
      <trkpt lat="48.00192" lon="-0.67229">
        <ele>65.4</ele>
        <time>2018-05-22T18:28:06Z</time>
      </trkpt>
      <trkpt lat="48.00186" lon="-0.67226">
        <ele>66.4</ele>
        <time>2018-05-22T18:28:10Z</time>
      </trkpt>
      <trkpt lat="48.00181" lon="-0.67222">
        <ele>67.4</ele>
        <time>2018-05-22T18:28:14Z</time>
      </trkpt>
      <trkpt lat="48.00176" lon="-0.67219">
        <ele>68.5</ele>
        <time>2018-05-22T18:28:18Z</time>
      </trkpt>
      <trkpt lat="48.00171" lon="-0.67215">
        <ele>69.6</ele>
        <time>2018-05-22T18:28:22Z</time>
      </trkpt>
      <trkpt lat="48.00165" lon="-0.67211">
        <ele>70.6</ele>
        <time>2018-05-22T18:28:26Z</time>
      </trkpt>
      <trkpt lat="48.0016" lon="-0.67208">
        <ele>71.3</ele>
        <time>2018-05-22T18:28:30Z</time>
      </trkpt>
      <trkpt lat="48.00155" lon="-0.67206">
        <ele>72</ele>
        <time>2018-05-22T18:28:34Z</time>
      </trkpt>
      <trkpt lat="48.0015" lon="-0.67199">
        <ele>72.8</ele>
        <time>2018-05-22T18:28:38Z</time>
      </trkpt>
      <trkpt lat="48.00144" lon="-0.67192">
        <ele>73.4</ele>
        <time>2018-05-22T18:28:42Z</time>
      </trkpt>
      <trkpt lat="48.00139" lon="-0.67189">
        <ele>74</ele>
        <time>2018-05-22T18:28:46Z</time>
      </trkpt>
      <trkpt lat="48.00134" lon="-0.67184">
        <ele>74.2</ele>
        <time>2018-05-22T18:28:50Z</time>
      </trkpt>
      <trkpt lat="48.00129" lon="-0.6718">
        <ele>74.4</ele>
        <time>2018-05-22T18:28:54Z</time>
      </trkpt>
      <trkpt lat="48.00119" lon="-0.67176">
        <ele>74.7</ele>
        <time>2018-05-22T18:28:58Z</time>
      </trkpt>
      <trkpt lat="48.00106" lon="-0.67178">
        <ele>74.8</ele>
        <time>2018-05-22T18:29:02Z</time>
      </trkpt>
      <trkpt lat="48.00086" lon="-0.67188">
        <ele>74.1</ele>
        <time>2018-05-22T18:29:06Z</time>
      </trkpt>
      <trkpt lat="48.00065" lon="-0.67207">
        <ele>71.8</ele>
        <time>2018-05-22T18:29:10Z</time>
      </trkpt>
      <trkpt lat="48.00037" lon="-0.6721">
        <ele>67.2</ele>
        <time>2018-05-22T18:29:14Z</time>
      </trkpt>
      <trkpt lat="48.00004" lon="-0.67209">
        <ele>62.4</ele>
        <time>2018-05-22T18:29:18Z</time>
      </trkpt>
      <trkpt lat="47.99979" lon="-0.67201">
        <ele>61.9</ele>
        <time>2018-05-22T18:29:22Z</time>
      </trkpt>
      <trkpt lat="47.99953" lon="-0.67181">
        <ele>64</ele>
        <time>2018-05-22T18:29:26Z</time>
      </trkpt>
      <trkpt lat="47.99939" lon="-0.67166">
        <ele>65.4</ele>
        <time>2018-05-22T18:29:30Z</time>
      </trkpt>
      <trkpt lat="47.99928" lon="-0.67159">
        <ele>66.6</ele>
        <time>2018-05-22T18:29:34Z</time>
      </trkpt>
      <trkpt lat="47.99918" lon="-0.67153">
        <ele>67.4</ele>
        <time>2018-05-22T18:29:38Z</time>
      </trkpt>
      <trkpt lat="47.99908" lon="-0.67146">
        <ele>67.9</ele>
        <time>2018-05-22T18:29:42Z</time>
      </trkpt>
      <trkpt lat="47.999" lon="-0.67139">
        <ele>68.6</ele>
        <time>2018-05-22T18:29:46Z</time>
      </trkpt>
      <trkpt lat="47.9989" lon="-0.67132">
        <ele>69.2</ele>
        <time>2018-05-22T18:29:50Z</time>
      </trkpt>
      <trkpt lat="47.99881" lon="-0.67126">
        <ele>69.5</ele>
        <time>2018-05-22T18:29:54Z</time>
      </trkpt>
      <trkpt lat="47.99871" lon="-0.67119">
        <ele>69.7</ele>
        <time>2018-05-22T18:29:58Z</time>
      </trkpt>
      <trkpt lat="47.99861" lon="-0.67112">
        <ele>70</ele>
        <time>2018-05-22T18:30:02Z</time>
      </trkpt>
      <trkpt lat="47.9985" lon="-0.67105">
        <ele>70.4</ele>
        <time>2018-05-22T18:30:06Z</time>
      </trkpt>
      <trkpt lat="47.9984" lon="-0.671">
        <ele>70.8</ele>
        <time>2018-05-22T18:30:10Z</time>
      </trkpt>
      <trkpt lat="47.99829" lon="-0.67096">
        <ele>71.1</ele>
        <time>2018-05-22T18:30:14Z</time>
      </trkpt>
      <trkpt lat="47.99818" lon="-0.67094">
        <ele>71.2</ele>
        <time>2018-05-22T18:30:18Z</time>
      </trkpt>
      <trkpt lat="47.99807" lon="-0.67094">
        <ele>71.2</ele>
        <time>2018-05-22T18:30:22Z</time>
      </trkpt>
      <trkpt lat="47.99795" lon="-0.67089">
        <ele>71.6</ele>
        <time>2018-05-22T18:30:26Z</time>
      </trkpt>
      <trkpt lat="47.99783" lon="-0.67088">
        <ele>71.7</ele>
        <time>2018-05-22T18:30:30Z</time>
      </trkpt>
      <trkpt lat="47.9977" lon="-0.67083">
        <ele>72</ele>
        <time>2018-05-22T18:30:34Z</time>
      </trkpt>
      <trkpt lat="47.99756" lon="-0.6708">
        <ele>72.2</ele>
        <time>2018-05-22T18:30:38Z</time>
      </trkpt>
      <trkpt lat="47.99741" lon="-0.67081">
        <ele>72.2</ele>
        <time>2018-05-22T18:30:42Z</time>
      </trkpt>
      <trkpt lat="47.99725" lon="-0.67085">
        <ele>71.8</ele>
        <time>2018-05-22T18:30:46Z</time>
      </trkpt>
      <trkpt lat="47.99711" lon="-0.67093">
        <ele>71.1</ele>
        <time>2018-05-22T18:30:50Z</time>
      </trkpt>
      <trkpt lat="47.99698" lon="-0.67105">
        <ele>70.3</ele>
        <time>2018-05-22T18:30:54Z</time>
      </trkpt>
      <trkpt lat="47.99685" lon="-0.67117">
        <ele>70.6</ele>
        <time>2018-05-22T18:30:58Z</time>
      </trkpt>
      <trkpt lat="47.99672" lon="-0.67131">
        <ele>70.9</ele>
        <time>2018-05-22T18:31:02Z</time>
      </trkpt>
      <trkpt lat="47.99662" lon="-0.67143">
        <ele>71.2</ele>
        <time>2018-05-22T18:31:06Z</time>
      </trkpt>
      <trkpt lat="47.99654" lon="-0.67154">
        <ele>71.2</ele>
        <time>2018-05-22T18:31:10Z</time>
      </trkpt>
      <trkpt lat="47.99646" lon="-0.67166">
        <ele>71.2</ele>
        <time>2018-05-22T18:31:14Z</time>
      </trkpt>
      <trkpt lat="47.99636" lon="-0.6718">
        <ele>70.2</ele>
        <time>2018-05-22T18:31:18Z</time>
      </trkpt>
      <trkpt lat="47.99622" lon="-0.67188">
        <ele>69</ele>
        <time>2018-05-22T18:31:22Z</time>
      </trkpt>
      <trkpt lat="47.99603" lon="-0.67197">
        <ele>68.5</ele>
        <time>2018-05-22T18:31:26Z</time>
      </trkpt>
      <trkpt lat="47.99583" lon="-0.67207">
        <ele>68.8</ele>
        <time>2018-05-22T18:31:30Z</time>
      </trkpt>
      <trkpt lat="47.99562" lon="-0.67216">
        <ele>68.6</ele>
        <time>2018-05-22T18:31:34Z</time>
      </trkpt>
      <trkpt lat="47.9954" lon="-0.67225">
        <ele>68.2</ele>
        <time>2018-05-22T18:31:38Z</time>
      </trkpt>
      <trkpt lat="47.99515" lon="-0.67237">
        <ele>67.6</ele>
        <time>2018-05-22T18:31:42Z</time>
      </trkpt>
      <trkpt lat="47.99497" lon="-0.67248">
        <ele>68.3</ele>
        <time>2018-05-22T18:31:46Z</time>
      </trkpt>
      <trkpt lat="47.99483" lon="-0.67253">
        <ele>69.2</ele>
        <time>2018-05-22T18:31:50Z</time>
      </trkpt>
      <trkpt lat="47.99469" lon="-0.67254">
        <ele>70.3</ele>
        <time>2018-05-22T18:31:54Z</time>
      </trkpt>
      <trkpt lat="47.99457" lon="-0.67255">
        <ele>71.6</ele>
        <time>2018-05-22T18:31:58Z</time>
      </trkpt>
      <trkpt lat="47.99448" lon="-0.67256">
        <ele>72.7</ele>
        <time>2018-05-22T18:32:02Z</time>
      </trkpt>
      <trkpt lat="47.99437" lon="-0.6726">
        <ele>74.1</ele>
        <time>2018-05-22T18:32:06Z</time>
      </trkpt>
      <trkpt lat="47.99422" lon="-0.67271">
        <ele>76.2</ele>
        <time>2018-05-22T18:32:10Z</time>
      </trkpt>
      <trkpt lat="47.99404" lon="-0.67289">
        <ele>78.3</ele>
        <time>2018-05-22T18:32:54Z</time>
      </trkpt>
      <trkpt lat="47.99401" lon="-0.67295">
        <ele>78.6</ele>
        <time>2018-05-22T18:32:58Z</time>
      </trkpt>
      <trkpt lat="47.99401" lon="-0.67308">
        <ele>78.2</ele>
        <time>2018-05-22T18:33:02Z</time>
      </trkpt>
      <trkpt lat="47.99399" lon="-0.67326">
        <ele>77.8</ele>
        <time>2018-05-22T18:33:06Z</time>
      </trkpt>
      <trkpt lat="47.994" lon="-0.67351">
        <ele>76.1</ele>
        <time>2018-05-22T18:33:10Z</time>
      </trkpt>
      <trkpt lat="47.99401" lon="-0.67379">
        <ele>74</ele>
        <time>2018-05-22T18:33:14Z</time>
      </trkpt>
      <trkpt lat="47.99399" lon="-0.67417">
        <ele>71.6</ele>
        <time>2018-05-22T18:33:18Z</time>
      </trkpt>
      <trkpt lat="47.99392" lon="-0.67438">
        <ele>71.1</ele>
        <time>2018-05-22T18:33:22Z</time>
      </trkpt>
      <trkpt lat="47.99386" lon="-0.67463">
        <ele>71</ele>
        <time>2018-05-22T18:33:26Z</time>
      </trkpt>
      <trkpt lat="47.9938" lon="-0.67481">
        <ele>71.5</ele>
        <time>2018-05-22T18:33:30Z</time>
      </trkpt>
      <trkpt lat="47.99373" lon="-0.67498">
        <ele>72</ele>
        <time>2018-05-22T18:33:34Z</time>
      </trkpt>
      <trkpt lat="47.99361" lon="-0.67518">
        <ele>72.8</ele>
        <time>2018-05-22T18:33:38Z</time>
      </trkpt>
      <trkpt lat="47.99352" lon="-0.67532">
        <ele>73.2</ele>
        <time>2018-05-22T18:33:42Z</time>
      </trkpt>
      <trkpt lat="47.99337" lon="-0.67554">
        <ele>72.7</ele>
        <time>2018-05-22T18:33:46Z</time>
      </trkpt>
      <trkpt lat="47.99319" lon="-0.67583">
        <ele>72</ele>
        <time>2018-05-22T18:33:50Z</time>
      </trkpt>
      <trkpt lat="47.99298" lon="-0.67607">
        <ele>70.7</ele>
        <time>2018-05-22T18:33:54Z</time>
      </trkpt>
      <trkpt lat="47.99278" lon="-0.67624">
        <ele>69.6</ele>
        <time>2018-05-22T18:33:58Z</time>
      </trkpt>
      <trkpt lat="47.99258" lon="-0.67641">
        <ele>68.6</ele>
        <time>2018-05-22T18:34:02Z</time>
      </trkpt>
      <trkpt lat="47.99238" lon="-0.67656">
        <ele>68.9</ele>
        <time>2018-05-22T18:34:06Z</time>
      </trkpt>
      <trkpt lat="47.99224" lon="-0.67665">
        <ele>69.9</ele>
        <time>2018-05-22T18:34:10Z</time>
      </trkpt>
      <trkpt lat="47.99211" lon="-0.6767">
        <ele>71.6</ele>
        <time>2018-05-22T18:34:14Z</time>
      </trkpt>
      <trkpt lat="47.99199" lon="-0.67676">
        <ele>73</ele>
        <time>2018-05-22T18:34:18Z</time>
      </trkpt>
      <trkpt lat="47.99192" lon="-0.67678">
        <ele>73.9</ele>
        <time>2018-05-22T18:34:22Z</time>
      </trkpt>
      <trkpt lat="47.99184" lon="-0.67681">
        <ele>74.8</ele>
        <time>2018-05-22T18:34:26Z</time>
      </trkpt>
      <trkpt lat="47.99176" lon="-0.67683">
        <ele>75.8</ele>
        <time>2018-05-22T18:34:30Z</time>
      </trkpt>
      <trkpt lat="47.99169" lon="-0.67686">
        <ele>76.6</ele>
        <time>2018-05-22T18:34:34Z</time>
      </trkpt>
      <trkpt lat="47.99163" lon="-0.67687">
        <ele>77.2</ele>
        <time>2018-05-22T18:34:38Z</time>
      </trkpt>
      <trkpt lat="47.99156" lon="-0.67689">
        <ele>77.5</ele>
        <time>2018-05-22T18:34:42Z</time>
      </trkpt>
      <trkpt lat="47.99148" lon="-0.6769">
        <ele>77.9</ele>
        <time>2018-05-22T18:34:46Z</time>
      </trkpt>
      <trkpt lat="47.9914" lon="-0.67691">
        <ele>78.2</ele>
        <time>2018-05-22T18:34:50Z</time>
      </trkpt>
      <trkpt lat="47.99133" lon="-0.67689">
        <ele>78.6</ele>
        <time>2018-05-22T18:34:54Z</time>
      </trkpt>
      <trkpt lat="47.99126" lon="-0.67685">
        <ele>79.1</ele>
        <time>2018-05-22T18:34:58Z</time>
      </trkpt>
      <trkpt lat="47.99119" lon="-0.6768">
        <ele>79.7</ele>
        <time>2018-05-22T18:35:02Z</time>
      </trkpt>
      <trkpt lat="47.99112" lon="-0.67677">
        <ele>80.2</ele>
        <time>2018-05-22T18:35:06Z</time>
      </trkpt>
      <trkpt lat="47.99105" lon="-0.67672">
        <ele>80.7</ele>
        <time>2018-05-22T18:35:10Z</time>
      </trkpt>
      <trkpt lat="47.99097" lon="-0.67669">
        <ele>80.9</ele>
        <time>2018-05-22T18:35:14Z</time>
      </trkpt>
      <trkpt lat="47.99089" lon="-0.67667">
        <ele>81</ele>
        <time>2018-05-22T18:35:18Z</time>
      </trkpt>
      <trkpt lat="47.99079" lon="-0.67667">
        <ele>81.1</ele>
        <time>2018-05-22T18:35:22Z</time>
      </trkpt>
      <trkpt lat="47.99068" lon="-0.67669">
        <ele>81.5</ele>
        <time>2018-05-22T18:35:26Z</time>
      </trkpt>
      <trkpt lat="47.99056" lon="-0.67669">
        <ele>81.9</ele>
        <time>2018-05-22T18:35:30Z</time>
      </trkpt>
      <trkpt lat="47.99047" lon="-0.67654">
        <ele>82.7</ele>
        <time>2018-05-22T18:35:34Z</time>
      </trkpt>
      <trkpt lat="47.99045" lon="-0.67637">
        <ele>83.7</ele>
        <time>2018-05-22T18:35:38Z</time>
      </trkpt>
      <trkpt lat="47.99038" lon="-0.6763">
        <ele>83.9</ele>
        <time>2018-05-22T18:35:42Z</time>
      </trkpt>
      <trkpt lat="47.99025" lon="-0.67641">
        <ele>82.9</ele>
        <time>2018-05-22T18:35:46Z</time>
      </trkpt>
      <trkpt lat="47.99009" lon="-0.67662">
        <ele>81.6</ele>
        <time>2018-05-22T18:35:50Z</time>
      </trkpt>
      <trkpt lat="47.98992" lon="-0.67685">
        <ele>80.3</ele>
        <time>2018-05-22T18:35:54Z</time>
      </trkpt>
      <trkpt lat="47.98973" lon="-0.67703">
        <ele>79.7</ele>
        <time>2018-05-22T18:35:58Z</time>
      </trkpt>
      <trkpt lat="47.98952" lon="-0.67695">
        <ele>79.2</ele>
        <time>2018-05-22T18:36:02Z</time>
      </trkpt>
      <trkpt lat="47.98933" lon="-0.67683">
        <ele>79</ele>
        <time>2018-05-22T18:36:06Z</time>
      </trkpt>
      <trkpt lat="47.98912" lon="-0.67671">
        <ele>78.7</ele>
        <time>2018-05-22T18:36:10Z</time>
      </trkpt>
      <trkpt lat="47.98889" lon="-0.67669">
        <ele>77.9</ele>
        <time>2018-05-22T18:36:14Z</time>
      </trkpt>
      <trkpt lat="47.98864" lon="-0.67672">
        <ele>76.9</ele>
        <time>2018-05-22T18:36:18Z</time>
      </trkpt>
      <trkpt lat="47.98837" lon="-0.67677">
        <ele>74.9</ele>
        <time>2018-05-22T18:36:22Z</time>
      </trkpt>
      <trkpt lat="47.9881" lon="-0.67678">
        <ele>72.9</ele>
        <time>2018-05-22T18:36:26Z</time>
      </trkpt>
      <trkpt lat="47.98788" lon="-0.67668">
        <ele>72.9</ele>
        <time>2018-05-22T18:36:30Z</time>
      </trkpt>
      <trkpt lat="47.9877" lon="-0.67661">
        <ele>73.4</ele>
        <time>2018-05-22T18:36:34Z</time>
      </trkpt>
      <trkpt lat="47.9875" lon="-0.67665">
        <ele>74</ele>
        <time>2018-05-22T18:36:38Z</time>
      </trkpt>
      <trkpt lat="47.98731" lon="-0.67672">
        <ele>73.9</ele>
        <time>2018-05-22T18:36:42Z</time>
      </trkpt>
      <trkpt lat="47.98713" lon="-0.67678">
        <ele>74.5</ele>
        <time>2018-05-22T18:36:46Z</time>
      </trkpt>
      <trkpt lat="47.98696" lon="-0.67682">
        <ele>75.4</ele>
        <time>2018-05-22T18:36:50Z</time>
      </trkpt>
      <trkpt lat="47.98681" lon="-0.67693">
        <ele>76.5</ele>
        <time>2018-05-22T18:36:54Z</time>
      </trkpt>
      <trkpt lat="47.98669" lon="-0.67703">
        <ele>77.5</ele>
        <time>2018-05-22T18:36:58Z</time>
      </trkpt>
      <trkpt lat="47.98655" lon="-0.67711">
        <ele>78.1</ele>
        <time>2018-05-22T18:37:02Z</time>
      </trkpt>
      <trkpt lat="47.98644" lon="-0.67715">
        <ele>78.7</ele>
        <time>2018-05-22T18:37:06Z</time>
      </trkpt>
      <trkpt lat="47.98632" lon="-0.67718">
        <ele>79.3</ele>
        <time>2018-05-22T18:37:10Z</time>
      </trkpt>
      <trkpt lat="47.98619" lon="-0.67718">
        <ele>79.7</ele>
        <time>2018-05-22T18:37:14Z</time>
      </trkpt>
      <trkpt lat="47.98607" lon="-0.67719">
        <ele>80.1</ele>
        <time>2018-05-22T18:37:18Z</time>
      </trkpt>
      <trkpt lat="47.98594" lon="-0.67719">
        <ele>80.6</ele>
        <time>2018-05-22T18:37:22Z</time>
      </trkpt>
      <trkpt lat="47.9858" lon="-0.67718">
        <ele>81.1</ele>
        <time>2018-05-22T18:37:26Z</time>
      </trkpt>
      <trkpt lat="47.98567" lon="-0.67718">
        <ele>81.7</ele>
        <time>2018-05-22T18:37:30Z</time>
      </trkpt>
      <trkpt lat="47.98554" lon="-0.67717">
        <ele>82.2</ele>
        <time>2018-05-22T18:37:34Z</time>
      </trkpt>
      <trkpt lat="47.98541" lon="-0.67717">
        <ele>82.7</ele>
        <time>2018-05-22T18:37:38Z</time>
      </trkpt>
      <trkpt lat="47.98529" lon="-0.67718">
        <ele>83.1</ele>
        <time>2018-05-22T18:37:42Z</time>
      </trkpt>
      <trkpt lat="47.98516" lon="-0.6772">
        <ele>83.5</ele>
        <time>2018-05-22T18:37:46Z</time>
      </trkpt>
      <trkpt lat="47.98504" lon="-0.6772">
        <ele>83.9</ele>
        <time>2018-05-22T18:37:50Z</time>
      </trkpt>
      <trkpt lat="47.9849" lon="-0.67721">
        <ele>84.1</ele>
        <time>2018-05-22T18:37:54Z</time>
      </trkpt>
      <trkpt lat="47.98476" lon="-0.67721">
        <ele>84</ele>
        <time>2018-05-22T18:37:58Z</time>
      </trkpt>
      <trkpt lat="47.98462" lon="-0.67723">
        <ele>84.4</ele>
        <time>2018-05-22T18:38:02Z</time>
      </trkpt>
      <trkpt lat="47.98448" lon="-0.67726">
        <ele>84.9</ele>
        <time>2018-05-22T18:38:06Z</time>
      </trkpt>
      <trkpt lat="47.98434" lon="-0.67731">
        <ele>85.3</ele>
        <time>2018-05-22T18:38:10Z</time>
      </trkpt>
      <trkpt lat="47.98422" lon="-0.67727">
        <ele>85.7</ele>
        <time>2018-05-22T18:38:14Z</time>
      </trkpt>
      <trkpt lat="47.98419" lon="-0.67709">
        <ele>86</ele>
        <time>2018-05-22T18:38:18Z</time>
      </trkpt>
      <trkpt lat="47.98421" lon="-0.67688">
        <ele>86</ele>
        <time>2018-05-22T18:38:22Z</time>
      </trkpt>
      <trkpt lat="47.98423" lon="-0.67663">
        <ele>86</ele>
        <time>2018-05-22T18:38:26Z</time>
      </trkpt>
      <trkpt lat="47.98426" lon="-0.67638">
        <ele>86</ele>
        <time>2018-05-22T18:38:30Z</time>
      </trkpt>
      <trkpt lat="47.98431" lon="-0.67615">
        <ele>86.8</ele>
        <time>2018-05-22T18:38:34Z</time>
      </trkpt>
      <trkpt lat="47.98438" lon="-0.67591">
        <ele>87</ele>
        <time>2018-05-22T18:38:38Z</time>
      </trkpt>
      <trkpt lat="47.98446" lon="-0.67565">
        <ele>87</ele>
        <time>2018-05-22T18:38:42Z</time>
      </trkpt>
      <trkpt lat="47.98454" lon="-0.67539">
        <ele>87</ele>
        <time>2018-05-22T18:38:46Z</time>
      </trkpt>
      <trkpt lat="47.98463" lon="-0.67513">
        <ele>87</ele>
        <time>2018-05-22T18:38:50Z</time>
      </trkpt>
      <trkpt lat="47.98471" lon="-0.67486">
        <ele>87</ele>
        <time>2018-05-22T18:38:54Z</time>
      </trkpt>
      <trkpt lat="47.9848" lon="-0.67459">
        <ele>86.7</ele>
        <time>2018-05-22T18:38:58Z</time>
      </trkpt>
      <trkpt lat="47.98489" lon="-0.67432">
        <ele>86.6</ele>
        <time>2018-05-22T18:39:02Z</time>
      </trkpt>
      <trkpt lat="47.98497" lon="-0.67405">
        <ele>86.9</ele>
        <time>2018-05-22T18:39:06Z</time>
      </trkpt>
      <trkpt lat="47.98505" lon="-0.67378">
        <ele>87.1</ele>
        <time>2018-05-22T18:39:10Z</time>
      </trkpt>
      <trkpt lat="47.98512" lon="-0.67353">
        <ele>87.4</ele>
        <time>2018-05-22T18:39:14Z</time>
      </trkpt>
      <trkpt lat="47.98519" lon="-0.67326">
        <ele>87.8</ele>
        <time>2018-05-22T18:39:18Z</time>
      </trkpt>
      <trkpt lat="47.98526" lon="-0.673">
        <ele>88.2</ele>
        <time>2018-05-22T18:39:22Z</time>
      </trkpt>
      <trkpt lat="47.98533" lon="-0.67274">
        <ele>89</ele>
        <time>2018-05-22T18:39:26Z</time>
      </trkpt>
      <trkpt lat="47.98539" lon="-0.67247">
        <ele>89.4</ele>
        <time>2018-05-22T18:39:30Z</time>
      </trkpt>
      <trkpt lat="47.98545" lon="-0.67222">
        <ele>89.6</ele>
        <time>2018-05-22T18:39:34Z</time>
      </trkpt>
      <trkpt lat="47.98551" lon="-0.67198">
        <ele>90</ele>
        <time>2018-05-22T18:39:38Z</time>
      </trkpt>
      <trkpt lat="47.98557" lon="-0.67173">
        <ele>90.8</ele>
        <time>2018-05-22T18:39:42Z</time>
      </trkpt>
      <trkpt lat="47.98563" lon="-0.67148">
        <ele>91.2</ele>
        <time>2018-05-22T18:39:46Z</time>
      </trkpt>
      <trkpt lat="47.98569" lon="-0.67123">
        <ele>91.5</ele>
        <time>2018-05-22T18:39:50Z</time>
      </trkpt>
      <trkpt lat="47.98575" lon="-0.67097">
        <ele>91.7</ele>
        <time>2018-05-22T18:39:54Z</time>
      </trkpt>
      <trkpt lat="47.98582" lon="-0.67071">
        <ele>91.5</ele>
        <time>2018-05-22T18:39:58Z</time>
      </trkpt>
      <trkpt lat="47.98589" lon="-0.67044">
        <ele>90.8</ele>
        <time>2018-05-22T18:40:02Z</time>
      </trkpt>
      <trkpt lat="47.98582" lon="-0.67021">
        <ele>90</ele>
        <time>2018-05-22T18:40:06Z</time>
      </trkpt>
      <trkpt lat="47.98565" lon="-0.67022">
        <ele>90</ele>
        <time>2018-05-22T18:40:10Z</time>
      </trkpt>
      <trkpt lat="47.98556" lon="-0.67019">
        <ele>90</ele>
        <time>2018-05-22T18:40:14Z</time>
      </trkpt>
      <trkpt lat="47.98548" lon="-0.67016">
        <ele>89.9</ele>
        <time>2018-05-22T18:40:18Z</time>
      </trkpt>
      <trkpt lat="47.98544" lon="-0.67016">
        <ele>89.8</ele>
        <time>2018-05-22T18:40:42Z</time>
      </trkpt>
      <trkpt lat="47.98537" lon="-0.67008">
        <ele>89.5</ele>
        <time>2018-05-22T18:40:46Z</time>
      </trkpt>
      <trkpt lat="47.98537" lon="-0.66981">
        <ele>88.7</ele>
        <time>2018-05-22T18:40:50Z</time>
      </trkpt>
      <trkpt lat="47.98538" lon="-0.66944">
        <ele>87</ele>
        <time>2018-05-22T18:40:54Z</time>
      </trkpt>
      <trkpt lat="47.98539" lon="-0.66901">
        <ele>85.4</ele>
        <time>2018-05-22T18:40:58Z</time>
      </trkpt>
      <trkpt lat="47.98541" lon="-0.66855">
        <ele>84.3</ele>
        <time>2018-05-22T18:41:02Z</time>
      </trkpt>
      <trkpt lat="47.9854" lon="-0.6681">
        <ele>83.5</ele>
        <time>2018-05-22T18:41:06Z</time>
      </trkpt>
      <trkpt lat="47.98542" lon="-0.66767">
        <ele>82.8</ele>
        <time>2018-05-22T18:41:10Z</time>
      </trkpt>
      <trkpt lat="47.98545" lon="-0.66725">
        <ele>82.1</ele>
        <time>2018-05-22T18:41:14Z</time>
      </trkpt>
      <trkpt lat="47.98543" lon="-0.66682">
        <ele>81.5</ele>
        <time>2018-05-22T18:41:18Z</time>
      </trkpt>
      <trkpt lat="47.98537" lon="-0.6664">
        <ele>80</ele>
        <time>2018-05-22T18:41:22Z</time>
      </trkpt>
      <trkpt lat="47.98529" lon="-0.66598">
        <ele>78.6</ele>
        <time>2018-05-22T18:41:26Z</time>
      </trkpt>
      <trkpt lat="47.98522" lon="-0.66555">
        <ele>78.2</ele>
        <time>2018-05-22T18:41:30Z</time>
      </trkpt>
      <trkpt lat="47.98514" lon="-0.66515">
        <ele>77</ele>
        <time>2018-05-22T18:41:34Z</time>
      </trkpt>
      <trkpt lat="47.98506" lon="-0.66477">
        <ele>76.1</ele>
        <time>2018-05-22T18:41:38Z</time>
      </trkpt>
      <trkpt lat="47.98498" lon="-0.66439">
        <ele>77.9</ele>
        <time>2018-05-22T18:41:42Z</time>
      </trkpt>
      <trkpt lat="47.98491" lon="-0.66405">
        <ele>78.1</ele>
        <time>2018-05-22T18:41:46Z</time>
      </trkpt>
      <trkpt lat="47.98478" lon="-0.66377">
        <ele>78.9</ele>
        <time>2018-05-22T18:41:50Z</time>
      </trkpt>
      <trkpt lat="47.98469" lon="-0.66347">
        <ele>79.6</ele>
        <time>2018-05-22T18:41:54Z</time>
      </trkpt>
      <trkpt lat="47.98461" lon="-0.6632">
        <ele>81.2</ele>
        <time>2018-05-22T18:41:58Z</time>
      </trkpt>
      <trkpt lat="47.98456" lon="-0.66296">
        <ele>82.1</ele>
        <time>2018-05-22T18:42:02Z</time>
      </trkpt>
      <trkpt lat="47.98452" lon="-0.66275">
        <ele>82.4</ele>
        <time>2018-05-22T18:42:06Z</time>
      </trkpt>
      <trkpt lat="47.98448" lon="-0.66256">
        <ele>82.9</ele>
        <time>2018-05-22T18:42:10Z</time>
      </trkpt>
      <trkpt lat="47.98444" lon="-0.66238">
        <ele>83.5</ele>
        <time>2018-05-22T18:42:14Z</time>
      </trkpt>
      <trkpt lat="47.98439" lon="-0.66221">
        <ele>84.3</ele>
        <time>2018-05-22T18:42:18Z</time>
      </trkpt>
      <trkpt lat="47.98435" lon="-0.66205">
        <ele>85.2</ele>
        <time>2018-05-22T18:42:22Z</time>
      </trkpt>
      <trkpt lat="47.9843" lon="-0.66187">
        <ele>85.6</ele>
        <time>2018-05-22T18:42:26Z</time>
      </trkpt>
      <trkpt lat="47.98426" lon="-0.66171">
        <ele>85.9</ele>
        <time>2018-05-22T18:42:30Z</time>
      </trkpt>
      <trkpt lat="47.98421" lon="-0.66153">
        <ele>86.1</ele>
        <time>2018-05-22T18:42:34Z</time>
      </trkpt>
      <trkpt lat="47.98416" lon="-0.66135">
        <ele>86.1</ele>
        <time>2018-05-22T18:42:38Z</time>
      </trkpt>
      <trkpt lat="47.98411" lon="-0.66117">
        <ele>86.8</ele>
        <time>2018-05-22T18:42:42Z</time>
      </trkpt>
      <trkpt lat="47.98405" lon="-0.661">
        <ele>87.2</ele>
        <time>2018-05-22T18:42:46Z</time>
      </trkpt>
      <trkpt lat="47.98398" lon="-0.66083">
        <ele>87.3</ele>
        <time>2018-05-22T18:42:50Z</time>
      </trkpt>
      <trkpt lat="47.9839" lon="-0.66067">
        <ele>87.6</ele>
        <time>2018-05-22T18:42:54Z</time>
      </trkpt>
      <trkpt lat="47.98382" lon="-0.66051">
        <ele>88.1</ele>
        <time>2018-05-22T18:42:58Z</time>
      </trkpt>
      <trkpt lat="47.98373" lon="-0.66034">
        <ele>88.4</ele>
        <time>2018-05-22T18:43:02Z</time>
      </trkpt>
      <trkpt lat="47.98366" lon="-0.66014">
        <ele>88.6</ele>
        <time>2018-05-22T18:43:06Z</time>
      </trkpt>
      <trkpt lat="47.98362" lon="-0.65992">
        <ele>89</ele>
        <time>2018-05-22T18:43:10Z</time>
      </trkpt>
      <trkpt lat="47.9836" lon="-0.65971">
        <ele>89</ele>
        <time>2018-05-22T18:43:14Z</time>
      </trkpt>
      <trkpt lat="47.98354" lon="-0.65953">
        <ele>89.5</ele>
        <time>2018-05-22T18:43:18Z</time>
      </trkpt>
      <trkpt lat="47.9834" lon="-0.65947">
        <ele>89.2</ele>
        <time>2018-05-22T18:43:22Z</time>
      </trkpt>
      <trkpt lat="47.98321" lon="-0.65947">
        <ele>88.5</ele>
        <time>2018-05-22T18:43:26Z</time>
      </trkpt>
      <trkpt lat="47.98299" lon="-0.65938">
        <ele>87.6</ele>
        <time>2018-05-22T18:43:30Z</time>
      </trkpt>
      <trkpt lat="47.98281" lon="-0.65919">
        <ele>87</ele>
        <time>2018-05-22T18:43:34Z</time>
      </trkpt>
      <trkpt lat="47.98261" lon="-0.65897">
        <ele>85.8</ele>
        <time>2018-05-22T18:43:38Z</time>
      </trkpt>
      <trkpt lat="47.98242" lon="-0.65871">
        <ele>84.4</ele>
        <time>2018-05-22T18:43:42Z</time>
      </trkpt>
      <trkpt lat="47.98223" lon="-0.65841">
        <ele>83.8</ele>
        <time>2018-05-22T18:43:46Z</time>
      </trkpt>
      <trkpt lat="47.98203" lon="-0.65812">
        <ele>83.2</ele>
        <time>2018-05-22T18:43:50Z</time>
      </trkpt>
      <trkpt lat="47.98182" lon="-0.65786">
        <ele>82.4</ele>
        <time>2018-05-22T18:43:54Z</time>
      </trkpt>
      <trkpt lat="47.98162" lon="-0.65763">
        <ele>82.4</ele>
        <time>2018-05-22T18:43:58Z</time>
      </trkpt>
      <trkpt lat="47.98143" lon="-0.65748">
        <ele>82.1</ele>
        <time>2018-05-22T18:44:02Z</time>
      </trkpt>
      <trkpt lat="47.98128" lon="-0.65736">
        <ele>82.4</ele>
        <time>2018-05-22T18:44:06Z</time>
      </trkpt>
      <trkpt lat="47.98127" lon="-0.65735">
        <ele>82.4</ele>
        <time>2018-05-22T18:44:26Z</time>
      </trkpt>
      <trkpt lat="47.98125" lon="-0.65734">
        <ele>82.5</ele>
        <time>2018-05-22T18:44:34Z</time>
      </trkpt>
      <trkpt lat="47.98117" lon="-0.65724">
        <ele>82.8</ele>
        <time>2018-05-22T18:44:38Z</time>
      </trkpt>
      <trkpt lat="47.98106" lon="-0.65711">
        <ele>83.3</ele>
        <time>2018-05-22T18:44:42Z</time>
      </trkpt>
      <trkpt lat="47.98096" lon="-0.65697">
        <ele>84.1</ele>
        <time>2018-05-22T18:44:46Z</time>
      </trkpt>
      <trkpt lat="47.98086" lon="-0.65682">
        <ele>84.8</ele>
        <time>2018-05-22T18:44:50Z</time>
      </trkpt>
      <trkpt lat="47.98078" lon="-0.65666">
        <ele>85.6</ele>
        <time>2018-05-22T18:44:54Z</time>
      </trkpt>
      <trkpt lat="47.98069" lon="-0.65649">
        <ele>86.5</ele>
        <time>2018-05-22T18:44:58Z</time>
      </trkpt>
      <trkpt lat="47.98062" lon="-0.65633">
        <ele>87.4</ele>
        <time>2018-05-22T18:45:02Z</time>
      </trkpt>
      <trkpt lat="47.98055" lon="-0.65617">
        <ele>88.1</ele>
        <time>2018-05-22T18:45:06Z</time>
      </trkpt>
      <trkpt lat="47.98048" lon="-0.65603">
        <ele>88.6</ele>
        <time>2018-05-22T18:45:10Z</time>
      </trkpt>
      <trkpt lat="47.98041" lon="-0.6559">
        <ele>89</ele>
        <time>2018-05-22T18:45:14Z</time>
      </trkpt>
      <trkpt lat="47.98035" lon="-0.65577">
        <ele>89.5</ele>
        <time>2018-05-22T18:45:18Z</time>
      </trkpt>
      <trkpt lat="47.9803" lon="-0.65563">
        <ele>89.8</ele>
        <time>2018-05-22T18:45:22Z</time>
      </trkpt>
      <trkpt lat="47.98026" lon="-0.6555">
        <ele>90.1</ele>
        <time>2018-05-22T18:45:26Z</time>
      </trkpt>
      <trkpt lat="47.98021" lon="-0.65534">
        <ele>90.5</ele>
        <time>2018-05-22T18:45:30Z</time>
      </trkpt>
      <trkpt lat="47.98016" lon="-0.6552">
        <ele>90.8</ele>
        <time>2018-05-22T18:45:34Z</time>
      </trkpt>
      <trkpt lat="47.98012" lon="-0.65508">
        <ele>91.2</ele>
        <time>2018-05-22T18:45:38Z</time>
      </trkpt>
      <trkpt lat="47.98006" lon="-0.65494">
        <ele>91.6</ele>
        <time>2018-05-22T18:45:42Z</time>
      </trkpt>
      <trkpt lat="47.97999" lon="-0.65477">
        <ele>92.1</ele>
        <time>2018-05-22T18:45:46Z</time>
      </trkpt>
      <trkpt lat="47.97993" lon="-0.6546">
        <ele>92.5</ele>
        <time>2018-05-22T18:45:50Z</time>
      </trkpt>
      <trkpt lat="47.97988" lon="-0.65444">
        <ele>92.9</ele>
        <time>2018-05-22T18:45:54Z</time>
      </trkpt>
      <trkpt lat="47.97982" lon="-0.65428">
        <ele>93.3</ele>
        <time>2018-05-22T18:45:58Z</time>
      </trkpt>
      <trkpt lat="47.97976" lon="-0.65412">
        <ele>93.3</ele>
        <time>2018-05-22T18:46:02Z</time>
      </trkpt>
      <trkpt lat="47.9797" lon="-0.65397">
        <ele>93.9</ele>
        <time>2018-05-22T18:46:06Z</time>
      </trkpt>
      <trkpt lat="47.97965" lon="-0.65382">
        <ele>95</ele>
        <time>2018-05-22T18:46:10Z</time>
      </trkpt>
      <trkpt lat="47.97958" lon="-0.65367">
        <ele>96.2</ele>
        <time>2018-05-22T18:46:14Z</time>
      </trkpt>
      <trkpt lat="47.97951" lon="-0.65352">
        <ele>96.6</ele>
        <time>2018-05-22T18:46:18Z</time>
      </trkpt>
      <trkpt lat="47.97944" lon="-0.65337">
        <ele>96.2</ele>
        <time>2018-05-22T18:46:22Z</time>
      </trkpt>
      <trkpt lat="47.97936" lon="-0.65322">
        <ele>96.9</ele>
        <time>2018-05-22T18:46:26Z</time>
      </trkpt>
      <trkpt lat="47.97928" lon="-0.65307">
        <ele>97.5</ele>
        <time>2018-05-22T18:46:30Z</time>
      </trkpt>
      <trkpt lat="47.97921" lon="-0.65293">
        <ele>97.9</ele>
        <time>2018-05-22T18:46:34Z</time>
      </trkpt>
      <trkpt lat="47.97914" lon="-0.65278">
        <ele>98.1</ele>
        <time>2018-05-22T18:46:38Z</time>
      </trkpt>
      <trkpt lat="47.97907" lon="-0.65262">
        <ele>98.3</ele>
        <time>2018-05-22T18:46:42Z</time>
      </trkpt>
      <trkpt lat="47.979" lon="-0.65247">
        <ele>98.7</ele>
        <time>2018-05-22T18:46:46Z</time>
      </trkpt>
      <trkpt lat="47.97893" lon="-0.6523">
        <ele>99</ele>
        <time>2018-05-22T18:46:50Z</time>
      </trkpt>
      <trkpt lat="47.97887" lon="-0.65214">
        <ele>99</ele>
        <time>2018-05-22T18:46:54Z</time>
      </trkpt>
      <trkpt lat="47.9788" lon="-0.65195">
        <ele>99</ele>
        <time>2018-05-22T18:46:58Z</time>
      </trkpt>
      <trkpt lat="47.97872" lon="-0.65173">
        <ele>98.5</ele>
        <time>2018-05-22T18:47:02Z</time>
      </trkpt>
      <trkpt lat="47.97863" lon="-0.65147">
        <ele>98.1</ele>
        <time>2018-05-22T18:47:06Z</time>
      </trkpt>
      <trkpt lat="47.97854" lon="-0.65117">
        <ele>97.7</ele>
        <time>2018-05-22T18:47:10Z</time>
      </trkpt>
      <trkpt lat="47.97844" lon="-0.65084">
        <ele>96.8</ele>
        <time>2018-05-22T18:47:14Z</time>
      </trkpt>
      <trkpt lat="47.97835" lon="-0.6505">
        <ele>95.3</ele>
        <time>2018-05-22T18:47:18Z</time>
      </trkpt>
      <trkpt lat="47.97825" lon="-0.65017">
        <ele>95.1</ele>
        <time>2018-05-22T18:47:22Z</time>
      </trkpt>
      <trkpt lat="47.9782" lon="-0.64986">
        <ele>94.8</ele>
        <time>2018-05-22T18:47:26Z</time>
      </trkpt>
      <trkpt lat="47.97804" lon="-0.64967">
        <ele>94.9</ele>
        <time>2018-05-22T18:47:30Z</time>
      </trkpt>
      <trkpt lat="47.97786" lon="-0.64946">
        <ele>95</ele>
        <time>2018-05-22T18:47:34Z</time>
      </trkpt>
      <trkpt lat="47.9777" lon="-0.64922">
        <ele>96.2</ele>
        <time>2018-05-22T18:47:38Z</time>
      </trkpt>
      <trkpt lat="47.97756" lon="-0.64897">
        <ele>95.8</ele>
        <time>2018-05-22T18:47:42Z</time>
      </trkpt>
      <trkpt lat="47.97743" lon="-0.64872">
        <ele>96.5</ele>
        <time>2018-05-22T18:47:46Z</time>
      </trkpt>
      <trkpt lat="47.97729" lon="-0.64854">
        <ele>96.5</ele>
        <time>2018-05-22T18:47:50Z</time>
      </trkpt>
      <trkpt lat="47.97717" lon="-0.64838">
        <ele>97.6</ele>
        <time>2018-05-22T18:47:54Z</time>
      </trkpt>
      <trkpt lat="47.97705" lon="-0.64826">
        <ele>97.2</ele>
        <time>2018-05-22T18:47:58Z</time>
      </trkpt>
      <trkpt lat="47.97693" lon="-0.64815">
        <ele>97.7</ele>
        <time>2018-05-22T18:48:02Z</time>
      </trkpt>
      <trkpt lat="47.97681" lon="-0.64807">
        <ele>98.4</ele>
        <time>2018-05-22T18:48:06Z</time>
      </trkpt>
      <trkpt lat="47.97669" lon="-0.64799">
        <ele>98.6</ele>
        <time>2018-05-22T18:48:10Z</time>
      </trkpt>
      <trkpt lat="47.97657" lon="-0.64795">
        <ele>99</ele>
        <time>2018-05-22T18:48:14Z</time>
      </trkpt>
      <trkpt lat="47.97644" lon="-0.6479">
        <ele>99.8</ele>
        <time>2018-05-22T18:48:18Z</time>
      </trkpt>
      <trkpt lat="47.97631" lon="-0.64785">
        <ele>100.6</ele>
        <time>2018-05-22T18:48:22Z</time>
      </trkpt>
      <trkpt lat="47.97618" lon="-0.6478">
        <ele>100.9</ele>
        <time>2018-05-22T18:48:26Z</time>
      </trkpt>
      <trkpt lat="47.97606" lon="-0.64776">
        <ele>100.8</ele>
        <time>2018-05-22T18:48:30Z</time>
      </trkpt>
      <trkpt lat="47.97596" lon="-0.64773">
        <ele>100.6</ele>
        <time>2018-05-22T18:48:34Z</time>
      </trkpt>
      <trkpt lat="47.97588" lon="-0.64772">
        <ele>100.7</ele>
        <time>2018-05-22T18:48:38Z</time>
      </trkpt>
      <trkpt lat="47.97574" lon="-0.64766">
        <ele>100.5</ele>
        <time>2018-05-22T18:48:42Z</time>
      </trkpt>
      <trkpt lat="47.97558" lon="-0.64762">
        <ele>100.6</ele>
        <time>2018-05-22T18:48:46Z</time>
      </trkpt>
      <trkpt lat="47.97541" lon="-0.64756">
        <ele>101.2</ele>
        <time>2018-05-22T18:48:50Z</time>
      </trkpt>
      <trkpt lat="47.97523" lon="-0.64747">
        <ele>101.6</ele>
        <time>2018-05-22T18:48:54Z</time>
      </trkpt>
      <trkpt lat="47.97505" lon="-0.64734">
        <ele>101.3</ele>
        <time>2018-05-22T18:48:58Z</time>
      </trkpt>
      <trkpt lat="47.97484" lon="-0.64721">
        <ele>101.3</ele>
        <time>2018-05-22T18:49:02Z</time>
      </trkpt>
      <trkpt lat="47.97462" lon="-0.64707">
        <ele>100.3</ele>
        <time>2018-05-22T18:49:06Z</time>
      </trkpt>
      <trkpt lat="47.97439" lon="-0.64694">
        <ele>99.9</ele>
        <time>2018-05-22T18:49:10Z</time>
      </trkpt>
      <trkpt lat="47.97416" lon="-0.64679">
        <ele>100</ele>
        <time>2018-05-22T18:49:14Z</time>
      </trkpt>
      <trkpt lat="47.97396" lon="-0.64667">
        <ele>100</ele>
        <time>2018-05-22T18:49:18Z</time>
      </trkpt>
      <trkpt lat="47.97376" lon="-0.64655">
        <ele>98.9</ele>
        <time>2018-05-22T18:49:22Z</time>
      </trkpt>
      <trkpt lat="47.97356" lon="-0.64642">
        <ele>99.2</ele>
        <time>2018-05-22T18:49:26Z</time>
      </trkpt>
      <trkpt lat="47.97338" lon="-0.64632">
        <ele>99.2</ele>
        <time>2018-05-22T18:49:30Z</time>
      </trkpt>
      <trkpt lat="47.97321" lon="-0.64621">
        <ele>99.3</ele>
        <time>2018-05-22T18:49:34Z</time>
      </trkpt>
      <trkpt lat="47.97305" lon="-0.64611">
        <ele>100</ele>
        <time>2018-05-22T18:49:38Z</time>
      </trkpt>
      <trkpt lat="47.97289" lon="-0.64601">
        <ele>99.6</ele>
        <time>2018-05-22T18:49:42Z</time>
      </trkpt>
      <trkpt lat="47.97274" lon="-0.64592">
        <ele>100.1</ele>
        <time>2018-05-22T18:49:46Z</time>
      </trkpt>
      <trkpt lat="47.97259" lon="-0.64583">
        <ele>100.7</ele>
        <time>2018-05-22T18:49:50Z</time>
      </trkpt>
      <trkpt lat="47.97244" lon="-0.64576">
        <ele>100.6</ele>
        <time>2018-05-22T18:49:54Z</time>
      </trkpt>
      <trkpt lat="47.9723" lon="-0.64569">
        <ele>100.7</ele>
        <time>2018-05-22T18:49:58Z</time>
      </trkpt>
      <trkpt lat="47.97216" lon="-0.64565">
        <ele>101</ele>
        <time>2018-05-22T18:50:02Z</time>
      </trkpt>
      <trkpt lat="47.972" lon="-0.64562">
        <ele>101</ele>
        <time>2018-05-22T18:50:06Z</time>
      </trkpt>
      <trkpt lat="47.97184" lon="-0.64559">
        <ele>100.9</ele>
        <time>2018-05-22T18:50:10Z</time>
      </trkpt>
      <trkpt lat="47.97169" lon="-0.64559">
        <ele>100.9</ele>
        <time>2018-05-22T18:50:14Z</time>
      </trkpt>
      <trkpt lat="47.97153" lon="-0.64558">
        <ele>100.9</ele>
        <time>2018-05-22T18:50:18Z</time>
      </trkpt>
      <trkpt lat="47.97138" lon="-0.64558">
        <ele>100.9</ele>
        <time>2018-05-22T18:50:22Z</time>
      </trkpt>
      <trkpt lat="47.97122" lon="-0.64557">
        <ele>100.9</ele>
        <time>2018-05-22T18:50:26Z</time>
      </trkpt>
      <trkpt lat="47.97106" lon="-0.64555">
        <ele>101</ele>
        <time>2018-05-22T18:50:30Z</time>
      </trkpt>
      <trkpt lat="47.97091" lon="-0.64555">
        <ele>101</ele>
        <time>2018-05-22T18:50:34Z</time>
      </trkpt>
      <trkpt lat="47.97085" lon="-0.64547">
        <ele>101</ele>
        <time>2018-05-22T18:50:38Z</time>
      </trkpt>
      <trkpt lat="47.97093" lon="-0.64541">
        <ele>101</ele>
        <time>2018-05-22T18:50:42Z</time>
      </trkpt>
      <trkpt lat="47.97097" lon="-0.64526">
        <ele>101</ele>
        <time>2018-05-22T18:50:46Z</time>
      </trkpt>
      <trkpt lat="47.97096" lon="-0.6451">
        <ele>101</ele>
        <time>2018-05-22T18:50:50Z</time>
      </trkpt>
      <trkpt lat="47.97105" lon="-0.64494">
        <ele>101</ele>
        <time>2018-05-22T18:50:54Z</time>
      </trkpt>
      <trkpt lat="47.97118" lon="-0.64479">
        <ele>101</ele>
        <time>2018-05-22T18:50:58Z</time>
      </trkpt>
      <trkpt lat="47.97129" lon="-0.64464">
        <ele>101</ele>
        <time>2018-05-22T18:51:02Z</time>
      </trkpt>
      <trkpt lat="47.97141" lon="-0.64444">
        <ele>101</ele>
        <time>2018-05-22T18:51:06Z</time>
      </trkpt>
      <trkpt lat="47.97152" lon="-0.64428">
        <ele>101</ele>
        <time>2018-05-22T18:51:10Z</time>
      </trkpt>
      <trkpt lat="47.97165" lon="-0.64411">
        <ele>101</ele>
        <time>2018-05-22T18:51:14Z</time>
      </trkpt>
      <trkpt lat="47.97181" lon="-0.64399">
        <ele>101</ele>
        <time>2018-05-22T18:51:18Z</time>
      </trkpt>
      <trkpt lat="47.97198" lon="-0.64386">
        <ele>101</ele>
        <time>2018-05-22T18:51:22Z</time>
      </trkpt>
      <trkpt lat="47.9721" lon="-0.64368">
        <ele>101</ele>
        <time>2018-05-22T18:51:26Z</time>
      </trkpt>
      <trkpt lat="47.97224" lon="-0.64349">
        <ele>101</ele>
        <time>2018-05-22T18:51:30Z</time>
      </trkpt>
      <trkpt lat="47.9724" lon="-0.6433">
        <ele>101</ele>
        <time>2018-05-22T18:51:34Z</time>
      </trkpt>
      <trkpt lat="47.97252" lon="-0.64314">
        <ele>101</ele>
        <time>2018-05-22T18:51:38Z</time>
      </trkpt>
      <trkpt lat="47.97267" lon="-0.64294">
        <ele>101</ele>
        <time>2018-05-22T18:51:42Z</time>
      </trkpt>
      <trkpt lat="47.97282" lon="-0.64274">
        <ele>100.8</ele>
        <time>2018-05-22T18:51:46Z</time>
      </trkpt>
      <trkpt lat="47.9729" lon="-0.64252">
        <ele>100.5</ele>
        <time>2018-05-22T18:51:50Z</time>
      </trkpt>
      <trkpt lat="47.97283" lon="-0.6424">
        <ele>100.5</ele>
        <time>2018-05-22T18:51:54Z</time>
      </trkpt>
      <trkpt lat="47.97272" lon="-0.64226">
        <ele>100.1</ele>
        <time>2018-05-22T18:51:58Z</time>
      </trkpt>
      <trkpt lat="47.97261" lon="-0.6421">
        <ele>99.8</ele>
        <time>2018-05-22T18:52:02Z</time>
      </trkpt>
      <trkpt lat="47.97251" lon="-0.64197">
        <ele>100</ele>
        <time>2018-05-22T18:52:06Z</time>
      </trkpt>
      <trkpt lat="47.97238" lon="-0.64179">
        <ele>99.7</ele>
        <time>2018-05-22T18:52:10Z</time>
      </trkpt>
      <trkpt lat="47.97222" lon="-0.64163">
        <ele>99.8</ele>
        <time>2018-05-22T18:52:14Z</time>
      </trkpt>
      <trkpt lat="47.97209" lon="-0.64149">
        <ele>99.2</ele>
        <time>2018-05-22T18:52:18Z</time>
      </trkpt>
      <trkpt lat="47.97196" lon="-0.64136">
        <ele>98.9</ele>
        <time>2018-05-22T18:52:22Z</time>
      </trkpt>
      <trkpt lat="47.9718" lon="-0.6412">
        <ele>98.3</ele>
        <time>2018-05-22T18:52:26Z</time>
      </trkpt>
      <trkpt lat="47.97163" lon="-0.64104">
        <ele>98</ele>
        <time>2018-05-22T18:52:30Z</time>
      </trkpt>
      <trkpt lat="47.97146" lon="-0.64091">
        <ele>98</ele>
        <time>2018-05-22T18:52:34Z</time>
      </trkpt>
      <trkpt lat="47.97131" lon="-0.64077">
        <ele>98</ele>
        <time>2018-05-22T18:52:38Z</time>
      </trkpt>
      <trkpt lat="47.97118" lon="-0.64063">
        <ele>98</ele>
        <time>2018-05-22T18:52:42Z</time>
      </trkpt>
      <trkpt lat="47.97103" lon="-0.64045">
        <ele>98</ele>
        <time>2018-05-22T18:52:46Z</time>
      </trkpt>
      <trkpt lat="47.97088" lon="-0.64032">
        <ele>98</ele>
        <time>2018-05-22T18:52:50Z</time>
      </trkpt>
      <trkpt lat="47.97073" lon="-0.64021">
        <ele>98.3</ele>
        <time>2018-05-22T18:52:54Z</time>
      </trkpt>
      <trkpt lat="47.97058" lon="-0.64006">
        <ele>98.2</ele>
        <time>2018-05-22T18:52:58Z</time>
      </trkpt>
      <trkpt lat="47.97044" lon="-0.63995">
        <ele>98.4</ele>
        <time>2018-05-22T18:53:02Z</time>
      </trkpt>
      <trkpt lat="47.97029" lon="-0.63981">
        <ele>99</ele>
        <time>2018-05-22T18:53:06Z</time>
      </trkpt>
      <trkpt lat="47.97014" lon="-0.63967">
        <ele>99</ele>
        <time>2018-05-22T18:53:10Z</time>
      </trkpt>
      <trkpt lat="47.96999" lon="-0.63954">
        <ele>99</ele>
        <time>2018-05-22T18:53:14Z</time>
      </trkpt>
      <trkpt lat="47.96983" lon="-0.63942">
        <ele>99.6</ele>
        <time>2018-05-22T18:53:18Z</time>
      </trkpt>
      <trkpt lat="47.96968" lon="-0.63929">
        <ele>100</ele>
        <time>2018-05-22T18:53:22Z</time>
      </trkpt>
      <trkpt lat="47.96953" lon="-0.63914">
        <ele>100</ele>
        <time>2018-05-22T18:53:26Z</time>
      </trkpt>
      <trkpt lat="47.96937" lon="-0.63899">
        <ele>99.8</ele>
        <time>2018-05-22T18:53:30Z</time>
      </trkpt>
      <trkpt lat="47.96923" lon="-0.63886">
        <ele>99.2</ele>
        <time>2018-05-22T18:53:34Z</time>
      </trkpt>
      <trkpt lat="47.96908" lon="-0.63863">
        <ele>99</ele>
        <time>2018-05-22T18:53:38Z</time>
      </trkpt>
      <trkpt lat="47.96888" lon="-0.63843">
        <ele>98.3</ele>
        <time>2018-05-22T18:53:42Z</time>
      </trkpt>
      <trkpt lat="47.96862" lon="-0.63827">
        <ele>97</ele>
        <time>2018-05-22T18:53:46Z</time>
      </trkpt>
      <trkpt lat="47.96836" lon="-0.63813">
        <ele>96.4</ele>
        <time>2018-05-22T18:53:50Z</time>
      </trkpt>
      <trkpt lat="47.96813" lon="-0.63801">
        <ele>96</ele>
        <time>2018-05-22T18:53:54Z</time>
      </trkpt>
      <trkpt lat="47.96792" lon="-0.6379">
        <ele>96</ele>
        <time>2018-05-22T18:53:58Z</time>
      </trkpt>
      <trkpt lat="47.96775" lon="-0.63779">
        <ele>95.9</ele>
        <time>2018-05-22T18:54:02Z</time>
      </trkpt>
      <trkpt lat="47.96756" lon="-0.63768">
        <ele>95.1</ele>
        <time>2018-05-22T18:54:06Z</time>
      </trkpt>
      <trkpt lat="47.96735" lon="-0.63757">
        <ele>95</ele>
        <time>2018-05-22T18:54:10Z</time>
      </trkpt>
      <trkpt lat="47.96715" lon="-0.63746">
        <ele>95</ele>
        <time>2018-05-22T18:54:14Z</time>
      </trkpt>
      <trkpt lat="47.96695" lon="-0.63732">
        <ele>95</ele>
        <time>2018-05-22T18:54:18Z</time>
      </trkpt>
      <trkpt lat="47.96676" lon="-0.63715">
        <ele>95</ele>
        <time>2018-05-22T18:54:22Z</time>
      </trkpt>
      <trkpt lat="47.96657" lon="-0.63697">
        <ele>95</ele>
        <time>2018-05-22T18:54:26Z</time>
      </trkpt>
      <trkpt lat="47.96637" lon="-0.63688">
        <ele>95</ele>
        <time>2018-05-22T18:54:30Z</time>
      </trkpt>
      <trkpt lat="47.96623" lon="-0.63705">
        <ele>95</ele>
        <time>2018-05-22T18:54:34Z</time>
      </trkpt>
      <trkpt lat="47.96611" lon="-0.63724">
        <ele>95.1</ele>
        <time>2018-05-22T18:54:38Z</time>
      </trkpt>
      <trkpt lat="47.96599" lon="-0.63743">
        <ele>95.9</ele>
        <time>2018-05-22T18:54:42Z</time>
      </trkpt>
      <trkpt lat="47.96586" lon="-0.6376">
        <ele>96</ele>
        <time>2018-05-22T18:54:46Z</time>
      </trkpt>
      <trkpt lat="47.96574" lon="-0.6378">
        <ele>96</ele>
        <time>2018-05-22T18:54:50Z</time>
      </trkpt>
      <trkpt lat="47.96564" lon="-0.638">
        <ele>96</ele>
        <time>2018-05-22T18:54:54Z</time>
      </trkpt>
      <trkpt lat="47.96561" lon="-0.63826">
        <ele>96.6</ele>
        <time>2018-05-22T18:54:58Z</time>
      </trkpt>
      <trkpt lat="47.96561" lon="-0.6385">
        <ele>96.9</ele>
        <time>2018-05-22T18:55:02Z</time>
      </trkpt>
      <trkpt lat="47.96562" lon="-0.63874">
        <ele>97</ele>
        <time>2018-05-22T18:55:06Z</time>
      </trkpt>
      <trkpt lat="47.96563" lon="-0.63899">
        <ele>97</ele>
        <time>2018-05-22T18:55:10Z</time>
      </trkpt>
      <trkpt lat="47.96564" lon="-0.63925">
        <ele>97.3</ele>
        <time>2018-05-22T18:55:14Z</time>
      </trkpt>
      <trkpt lat="47.96564" lon="-0.63949">
        <ele>98</ele>
        <time>2018-05-22T18:55:18Z</time>
      </trkpt>
      <trkpt lat="47.96562" lon="-0.63974">
        <ele>98</ele>
        <time>2018-05-22T18:55:22Z</time>
      </trkpt>
      <trkpt lat="47.9656" lon="-0.63998">
        <ele>98</ele>
        <time>2018-05-22T18:55:26Z</time>
      </trkpt>
      <trkpt lat="47.96558" lon="-0.64022">
        <ele>98</ele>
        <time>2018-05-22T18:55:30Z</time>
      </trkpt>
      <trkpt lat="47.96555" lon="-0.64046">
        <ele>98.6</ele>
        <time>2018-05-22T18:55:34Z</time>
      </trkpt>
      <trkpt lat="47.96553" lon="-0.64067">
        <ele>99</ele>
        <time>2018-05-22T18:55:38Z</time>
      </trkpt>
      <trkpt lat="47.96549" lon="-0.64089">
        <ele>98.9</ele>
        <time>2018-05-22T18:55:42Z</time>
      </trkpt>
      <trkpt lat="47.96539" lon="-0.64106">
        <ele>98.5</ele>
        <time>2018-05-22T18:55:46Z</time>
      </trkpt>
      <trkpt lat="47.96523" lon="-0.64102">
        <ele>98.3</ele>
        <time>2018-05-22T18:55:50Z</time>
      </trkpt>
      <trkpt lat="47.96504" lon="-0.64097">
        <ele>98.1</ele>
        <time>2018-05-22T18:55:54Z</time>
      </trkpt>
      <trkpt lat="47.96484" lon="-0.64089">
        <ele>97.4</ele>
        <time>2018-05-22T18:55:58Z</time>
      </trkpt>
      <trkpt lat="47.96465" lon="-0.6408">
        <ele>97.3</ele>
        <time>2018-05-22T18:56:02Z</time>
      </trkpt>
      <trkpt lat="47.96446" lon="-0.64068">
        <ele>98</ele>
        <time>2018-05-22T18:56:06Z</time>
      </trkpt>
      <trkpt lat="47.96429" lon="-0.6405">
        <ele>98</ele>
        <time>2018-05-22T18:56:10Z</time>
      </trkpt>
      <trkpt lat="47.96414" lon="-0.64031">
        <ele>98</ele>
        <time>2018-05-22T18:56:14Z</time>
      </trkpt>
      <trkpt lat="47.96398" lon="-0.64012">
        <ele>98</ele>
        <time>2018-05-22T18:56:18Z</time>
      </trkpt>
      <trkpt lat="47.9638" lon="-0.63997">
        <ele>97.7</ele>
        <time>2018-05-22T18:56:22Z</time>
      </trkpt>
      <trkpt lat="47.96365" lon="-0.64003">
        <ele>97.2</ele>
        <time>2018-05-22T18:56:26Z</time>
      </trkpt>
      <trkpt lat="47.96367" lon="-0.64026">
        <ele>97.2</ele>
        <time>2018-05-22T18:56:30Z</time>
      </trkpt>
      <trkpt lat="47.96368" lon="-0.64054">
        <ele>97</ele>
        <time>2018-05-22T18:56:34Z</time>
      </trkpt>
      <trkpt lat="47.96369" lon="-0.64085">
        <ele>97</ele>
        <time>2018-05-22T18:56:38Z</time>
      </trkpt>
      <trkpt lat="47.9637" lon="-0.6412">
        <ele>96.2</ele>
        <time>2018-05-22T18:56:42Z</time>
      </trkpt>
      <trkpt lat="47.96371" lon="-0.64156">
        <ele>96</ele>
        <time>2018-05-22T18:56:46Z</time>
      </trkpt>
      <trkpt lat="47.96371" lon="-0.64193">
        <ele>95.4</ele>
        <time>2018-05-22T18:56:50Z</time>
      </trkpt>
      <trkpt lat="47.96373" lon="-0.64232">
        <ele>95</ele>
        <time>2018-05-22T18:56:54Z</time>
      </trkpt>
      <trkpt lat="47.96373" lon="-0.64272">
        <ele>94.6</ele>
        <time>2018-05-22T18:56:58Z</time>
      </trkpt>
      <trkpt lat="47.96374" lon="-0.64311">
        <ele>94</ele>
        <time>2018-05-22T18:57:02Z</time>
      </trkpt>
      <trkpt lat="47.96375" lon="-0.64351">
        <ele>93.7</ele>
        <time>2018-05-22T18:57:06Z</time>
      </trkpt>
      <trkpt lat="47.96376" lon="-0.64391">
        <ele>93</ele>
        <time>2018-05-22T18:57:10Z</time>
      </trkpt>
      <trkpt lat="47.96377" lon="-0.64432">
        <ele>92.8</ele>
        <time>2018-05-22T18:57:14Z</time>
      </trkpt>
      <trkpt lat="47.96378" lon="-0.64472">
        <ele>92</ele>
        <time>2018-05-22T18:57:18Z</time>
      </trkpt>
      <trkpt lat="47.96378" lon="-0.64513">
        <ele>91.6</ele>
        <time>2018-05-22T18:57:22Z</time>
      </trkpt>
      <trkpt lat="47.96379" lon="-0.64553">
        <ele>91.3</ele>
        <time>2018-05-22T18:57:26Z</time>
      </trkpt>
      <trkpt lat="47.9638" lon="-0.64591">
        <ele>91.3</ele>
        <time>2018-05-22T18:57:30Z</time>
      </trkpt>
      <trkpt lat="47.96381" lon="-0.64627">
        <ele>91.4</ele>
        <time>2018-05-22T18:57:34Z</time>
      </trkpt>
      <trkpt lat="47.96381" lon="-0.64662">
        <ele>91.5</ele>
        <time>2018-05-22T18:57:38Z</time>
      </trkpt>
      <trkpt lat="47.96382" lon="-0.64696">
        <ele>91.5</ele>
        <time>2018-05-22T18:57:42Z</time>
      </trkpt>
      <trkpt lat="47.96382" lon="-0.64729">
        <ele>91.8</ele>
        <time>2018-05-22T18:57:46Z</time>
      </trkpt>
      <trkpt lat="47.96383" lon="-0.6476">
        <ele>91.8</ele>
        <time>2018-05-22T18:57:50Z</time>
      </trkpt>
      <trkpt lat="47.96383" lon="-0.64793">
        <ele>91.8</ele>
        <time>2018-05-22T18:57:54Z</time>
      </trkpt>
      <trkpt lat="47.96384" lon="-0.64826">
        <ele>91.2</ele>
        <time>2018-05-22T18:57:58Z</time>
      </trkpt>
      <trkpt lat="47.96384" lon="-0.64862">
        <ele>90.8</ele>
        <time>2018-05-22T18:58:02Z</time>
      </trkpt>
      <trkpt lat="47.96385" lon="-0.64901">
        <ele>89.9</ele>
        <time>2018-05-22T18:58:06Z</time>
      </trkpt>
      <trkpt lat="47.96387" lon="-0.6494">
        <ele>89.1</ele>
        <time>2018-05-22T18:58:10Z</time>
      </trkpt>
      <trkpt lat="47.96388" lon="-0.6498">
        <ele>89</ele>
        <time>2018-05-22T18:58:14Z</time>
      </trkpt>
      <trkpt lat="47.96389" lon="-0.65019">
        <ele>89</ele>
        <time>2018-05-22T18:58:18Z</time>
      </trkpt>
      <trkpt lat="47.96391" lon="-0.65056">
        <ele>89.1</ele>
        <time>2018-05-22T18:58:22Z</time>
      </trkpt>
      <trkpt lat="47.96393" lon="-0.65088">
        <ele>90</ele>
        <time>2018-05-22T18:58:26Z</time>
      </trkpt>
      <trkpt lat="47.96394" lon="-0.65117">
        <ele>89</ele>
        <time>2018-05-22T18:58:30Z</time>
      </trkpt>
      <trkpt lat="47.96398" lon="-0.65145">
        <ele>88.3</ele>
        <time>2018-05-22T18:58:34Z</time>
      </trkpt>
      <trkpt lat="47.96406" lon="-0.65177">
        <ele>87.3</ele>
        <time>2018-05-22T18:58:38Z</time>
      </trkpt>
      <trkpt lat="47.9642" lon="-0.652">
        <ele>86.8</ele>
        <time>2018-05-22T18:58:42Z</time>
      </trkpt>
      <trkpt lat="47.96437" lon="-0.65213">
        <ele>86.3</ele>
        <time>2018-05-22T18:58:46Z</time>
      </trkpt>
      <trkpt lat="47.96456" lon="-0.65236">
        <ele>85.5</ele>
        <time>2018-05-22T18:58:50Z</time>
      </trkpt>
      <trkpt lat="47.96479" lon="-0.65254">
        <ele>84.9</ele>
        <time>2018-05-22T18:58:54Z</time>
      </trkpt>
      <trkpt lat="47.96497" lon="-0.65281">
        <ele>84.9</ele>
        <time>2018-05-22T18:58:58Z</time>
      </trkpt>
      <trkpt lat="47.96512" lon="-0.65305">
        <ele>85</ele>
        <time>2018-05-22T18:59:02Z</time>
      </trkpt>
      <trkpt lat="47.96525" lon="-0.65327">
        <ele>86.5</ele>
        <time>2018-05-22T18:59:06Z</time>
      </trkpt>
      <trkpt lat="47.96538" lon="-0.65347">
        <ele>87.5</ele>
        <time>2018-05-22T18:59:10Z</time>
      </trkpt>
      <trkpt lat="47.9655" lon="-0.65368">
        <ele>88.9</ele>
        <time>2018-05-22T18:59:14Z</time>
      </trkpt>
      <trkpt lat="47.96562" lon="-0.65387">
        <ele>90.2</ele>
        <time>2018-05-22T18:59:18Z</time>
      </trkpt>
      <trkpt lat="47.96571" lon="-0.65405">
        <ele>91.2</ele>
        <time>2018-05-22T18:59:22Z</time>
      </trkpt>
      <trkpt lat="47.96581" lon="-0.6542">
        <ele>92</ele>
        <time>2018-05-22T18:59:26Z</time>
      </trkpt>
      <trkpt lat="47.9659" lon="-0.65434">
        <ele>92.8</ele>
        <time>2018-05-22T18:59:30Z</time>
      </trkpt>
      <trkpt lat="47.96598" lon="-0.65446">
        <ele>93.6</ele>
        <time>2018-05-22T18:59:34Z</time>
      </trkpt>
      <trkpt lat="47.96607" lon="-0.65459">
        <ele>94.4</ele>
        <time>2018-05-22T18:59:38Z</time>
      </trkpt>
      <trkpt lat="47.96616" lon="-0.65469">
        <ele>95</ele>
        <time>2018-05-22T18:59:42Z</time>
      </trkpt>
      <trkpt lat="47.96623" lon="-0.65481">
        <ele>95.4</ele>
        <time>2018-05-22T18:59:46Z</time>
      </trkpt>
      <trkpt lat="47.96629" lon="-0.65492">
        <ele>95.7</ele>
        <time>2018-05-22T18:59:50Z</time>
      </trkpt>
      <trkpt lat="47.96636" lon="-0.65508">
        <ele>96.2</ele>
        <time>2018-05-22T18:59:54Z</time>
      </trkpt>
      <trkpt lat="47.96643" lon="-0.65522">
        <ele>96.9</ele>
        <time>2018-05-22T18:59:58Z</time>
      </trkpt>
      <trkpt lat="47.9665" lon="-0.65538">
        <ele>97.4</ele>
        <time>2018-05-22T19:00:02Z</time>
      </trkpt>
      <trkpt lat="47.96657" lon="-0.65553">
        <ele>97.7</ele>
        <time>2018-05-22T19:00:06Z</time>
      </trkpt>
      <trkpt lat="47.96664" lon="-0.65568">
        <ele>97.9</ele>
        <time>2018-05-22T19:00:10Z</time>
      </trkpt>
      <trkpt lat="47.9667" lon="-0.65583">
        <ele>98.1</ele>
        <time>2018-05-22T19:00:14Z</time>
      </trkpt>
      <trkpt lat="47.96677" lon="-0.65598">
        <ele>98.4</ele>
        <time>2018-05-22T19:00:18Z</time>
      </trkpt>
      <trkpt lat="47.96684" lon="-0.65612">
        <ele>98.6</ele>
        <time>2018-05-22T19:00:22Z</time>
      </trkpt>
      <trkpt lat="47.96692" lon="-0.65628">
        <ele>98.9</ele>
        <time>2018-05-22T19:00:26Z</time>
      </trkpt>
      <trkpt lat="47.96701" lon="-0.65646">
        <ele>98.8</ele>
        <time>2018-05-22T19:00:30Z</time>
      </trkpt>
      <trkpt lat="47.96711" lon="-0.65665">
        <ele>98.6</ele>
        <time>2018-05-22T19:00:34Z</time>
      </trkpt>
      <trkpt lat="47.96722" lon="-0.65687">
        <ele>98.3</ele>
        <time>2018-05-22T19:00:38Z</time>
      </trkpt>
      <trkpt lat="47.96734" lon="-0.65711">
        <ele>98</ele>
        <time>2018-05-22T19:00:42Z</time>
      </trkpt>
      <trkpt lat="47.96749" lon="-0.65737">
        <ele>97.5</ele>
        <time>2018-05-22T19:00:46Z</time>
      </trkpt>
      <trkpt lat="47.96763" lon="-0.65765">
        <ele>97</ele>
        <time>2018-05-22T19:00:50Z</time>
      </trkpt>
      <trkpt lat="47.96777" lon="-0.65793">
        <ele>96.5</ele>
        <time>2018-05-22T19:00:54Z</time>
      </trkpt>
      <trkpt lat="47.96793" lon="-0.65822">
        <ele>95.9</ele>
        <time>2018-05-22T19:00:58Z</time>
      </trkpt>
      <trkpt lat="47.96808" lon="-0.65853">
        <ele>95.4</ele>
        <time>2018-05-22T19:01:02Z</time>
      </trkpt>
      <trkpt lat="47.96824" lon="-0.65883">
        <ele>95.7</ele>
        <time>2018-05-22T19:01:06Z</time>
      </trkpt>
      <trkpt lat="47.96839" lon="-0.65913">
        <ele>95.3</ele>
        <time>2018-05-22T19:01:10Z</time>
      </trkpt>
      <trkpt lat="47.96853" lon="-0.65943">
        <ele>96.4</ele>
        <time>2018-05-22T19:01:14Z</time>
      </trkpt>
      <trkpt lat="47.96864" lon="-0.65973">
        <ele>96.1</ele>
        <time>2018-05-22T19:01:18Z</time>
      </trkpt>
      <trkpt lat="47.96873" lon="-0.66">
        <ele>96.4</ele>
        <time>2018-05-22T19:01:22Z</time>
      </trkpt>
      <trkpt lat="47.9688" lon="-0.66026">
        <ele>96.7</ele>
        <time>2018-05-22T19:01:26Z</time>
      </trkpt>
      <trkpt lat="47.96888" lon="-0.6605">
        <ele>96.9</ele>
        <time>2018-05-22T19:01:30Z</time>
      </trkpt>
      <trkpt lat="47.96895" lon="-0.66073">
        <ele>97.1</ele>
        <time>2018-05-22T19:01:34Z</time>
      </trkpt>
      <trkpt lat="47.96902" lon="-0.66095">
        <ele>97.4</ele>
        <time>2018-05-22T19:01:38Z</time>
      </trkpt>
      <trkpt lat="47.96908" lon="-0.66116">
        <ele>98.2</ele>
        <time>2018-05-22T19:01:42Z</time>
      </trkpt>
      <trkpt lat="47.96915" lon="-0.66135">
        <ele>98.9</ele>
        <time>2018-05-22T19:01:46Z</time>
      </trkpt>
      <trkpt lat="47.96923" lon="-0.66161">
        <ele>99.6</ele>
        <time>2018-05-22T19:01:50Z</time>
      </trkpt>
      <trkpt lat="47.96931" lon="-0.66186">
        <ele>99.5</ele>
        <time>2018-05-22T19:01:54Z</time>
      </trkpt>
      <trkpt lat="47.96938" lon="-0.66209">
        <ele>99.1</ele>
        <time>2018-05-22T19:01:58Z</time>
      </trkpt>
      <trkpt lat="47.96947" lon="-0.66236">
        <ele>98.9</ele>
        <time>2018-05-22T19:02:02Z</time>
      </trkpt>
      <trkpt lat="47.96957" lon="-0.66269">
        <ele>97.9</ele>
        <time>2018-05-22T19:02:06Z</time>
      </trkpt>
      <trkpt lat="47.96968" lon="-0.66306">
        <ele>97</ele>
        <time>2018-05-22T19:02:10Z</time>
      </trkpt>
      <trkpt lat="47.96981" lon="-0.66345">
        <ele>95.9</ele>
        <time>2018-05-22T19:02:14Z</time>
      </trkpt>
      <trkpt lat="47.96993" lon="-0.66384">
        <ele>95</ele>
        <time>2018-05-22T19:02:18Z</time>
      </trkpt>
      <trkpt lat="47.97005" lon="-0.66422">
        <ele>94</ele>
        <time>2018-05-22T19:02:22Z</time>
      </trkpt>
      <trkpt lat="47.97017" lon="-0.66459">
        <ele>93.2</ele>
        <time>2018-05-22T19:02:26Z</time>
      </trkpt>
      <trkpt lat="47.97028" lon="-0.66498">
        <ele>93</ele>
        <time>2018-05-22T19:02:30Z</time>
      </trkpt>
      <trkpt lat="47.97041" lon="-0.66536">
        <ele>92</ele>
        <time>2018-05-22T19:02:34Z</time>
      </trkpt>
      <trkpt lat="47.97057" lon="-0.66573">
        <ele>91.3</ele>
        <time>2018-05-22T19:02:38Z</time>
      </trkpt>
      <trkpt lat="47.97077" lon="-0.66605">
        <ele>90.4</ele>
        <time>2018-05-22T19:02:42Z</time>
      </trkpt>
      <trkpt lat="47.97097" lon="-0.66636">
        <ele>90</ele>
        <time>2018-05-22T19:02:46Z</time>
      </trkpt>
      <trkpt lat="47.97118" lon="-0.66666">
        <ele>89</ele>
        <time>2018-05-22T19:02:50Z</time>
      </trkpt>
      <trkpt lat="47.9714" lon="-0.66695">
        <ele>88</ele>
        <time>2018-05-22T19:02:54Z</time>
      </trkpt>
      <trkpt lat="47.97162" lon="-0.66726">
        <ele>88.1</ele>
        <time>2018-05-22T19:02:58Z</time>
      </trkpt>
      <trkpt lat="47.97184" lon="-0.66757">
        <ele>87.1</ele>
        <time>2018-05-22T19:03:02Z</time>
      </trkpt>
      <trkpt lat="47.97206" lon="-0.66787">
        <ele>85.9</ele>
        <time>2018-05-22T19:03:06Z</time>
      </trkpt>
      <trkpt lat="47.97228" lon="-0.66816">
        <ele>85</ele>
        <time>2018-05-22T19:03:10Z</time>
      </trkpt>
      <trkpt lat="47.97249" lon="-0.66846">
        <ele>84.6</ele>
        <time>2018-05-22T19:03:14Z</time>
      </trkpt>
      <trkpt lat="47.97271" lon="-0.66876">
        <ele>83.6</ele>
        <time>2018-05-22T19:03:18Z</time>
      </trkpt>
      <trkpt lat="47.97292" lon="-0.66906">
        <ele>83.3</ele>
        <time>2018-05-22T19:03:22Z</time>
      </trkpt>
      <trkpt lat="47.97312" lon="-0.6694">
        <ele>83</ele>
        <time>2018-05-22T19:03:26Z</time>
      </trkpt>
      <trkpt lat="47.97327" lon="-0.66978">
        <ele>82.2</ele>
        <time>2018-05-22T19:03:30Z</time>
      </trkpt>
      <trkpt lat="47.97338" lon="-0.67019">
        <ele>82</ele>
        <time>2018-05-22T19:03:34Z</time>
      </trkpt>
      <trkpt lat="47.97349" lon="-0.6706">
        <ele>81.4</ele>
        <time>2018-05-22T19:03:38Z</time>
      </trkpt>
      <trkpt lat="47.9736" lon="-0.671">
        <ele>81</ele>
        <time>2018-05-22T19:03:42Z</time>
      </trkpt>
      <trkpt lat="47.97371" lon="-0.67141">
        <ele>80.9</ele>
        <time>2018-05-22T19:03:46Z</time>
      </trkpt>
      <trkpt lat="47.97382" lon="-0.67183">
        <ele>80</ele>
        <time>2018-05-22T19:03:50Z</time>
      </trkpt>
      <trkpt lat="47.97392" lon="-0.67224">
        <ele>79.9</ele>
        <time>2018-05-22T19:03:54Z</time>
      </trkpt>
      <trkpt lat="47.97403" lon="-0.67263">
        <ele>79.7</ele>
        <time>2018-05-22T19:03:58Z</time>
      </trkpt>
      <trkpt lat="47.97414" lon="-0.673">
        <ele>80</ele>
        <time>2018-05-22T19:04:02Z</time>
      </trkpt>
      <trkpt lat="47.97426" lon="-0.67335">
        <ele>79.7</ele>
        <time>2018-05-22T19:04:06Z</time>
      </trkpt>
      <trkpt lat="47.97438" lon="-0.67368">
        <ele>79.2</ele>
        <time>2018-05-22T19:04:10Z</time>
      </trkpt>
      <trkpt lat="47.9745" lon="-0.67403">
        <ele>78.8</ele>
        <time>2018-05-22T19:04:14Z</time>
      </trkpt>
      <trkpt lat="47.97463" lon="-0.67438">
        <ele>78.3</ele>
        <time>2018-05-22T19:04:18Z</time>
      </trkpt>
      <trkpt lat="47.97476" lon="-0.67476">
        <ele>77.8</ele>
        <time>2018-05-22T19:04:22Z</time>
      </trkpt>
      <trkpt lat="47.9749" lon="-0.67516">
        <ele>76.5</ele>
        <time>2018-05-22T19:04:26Z</time>
      </trkpt>
      <trkpt lat="47.97504" lon="-0.67558">
        <ele>75.8</ele>
        <time>2018-05-22T19:04:30Z</time>
      </trkpt>
      <trkpt lat="47.97519" lon="-0.676">
        <ele>74.6</ele>
        <time>2018-05-22T19:04:34Z</time>
      </trkpt>
      <trkpt lat="47.97533" lon="-0.67642">
        <ele>73.8</ele>
        <time>2018-05-22T19:04:38Z</time>
      </trkpt>
      <trkpt lat="47.97547" lon="-0.67683">
        <ele>73.3</ele>
        <time>2018-05-22T19:04:42Z</time>
      </trkpt>
      <trkpt lat="47.97561" lon="-0.67724">
        <ele>71.8</ele>
        <time>2018-05-22T19:04:46Z</time>
      </trkpt>
      <trkpt lat="47.97575" lon="-0.67765">
        <ele>71.3</ele>
        <time>2018-05-22T19:04:50Z</time>
      </trkpt>
      <trkpt lat="47.9759" lon="-0.67806">
        <ele>69.8</ele>
        <time>2018-05-22T19:04:54Z</time>
      </trkpt>
      <trkpt lat="47.97604" lon="-0.67849">
        <ele>68.7</ele>
        <time>2018-05-22T19:04:58Z</time>
      </trkpt>
      <trkpt lat="47.97619" lon="-0.67892">
        <ele>67.6</ele>
        <time>2018-05-22T19:05:02Z</time>
      </trkpt>
      <trkpt lat="47.97634" lon="-0.67935">
        <ele>66.2</ele>
        <time>2018-05-22T19:05:06Z</time>
      </trkpt>
      <trkpt lat="47.97649" lon="-0.6798">
        <ele>65.5</ele>
        <time>2018-05-22T19:05:10Z</time>
      </trkpt>
      <trkpt lat="47.97664" lon="-0.68023">
        <ele>65.1</ele>
        <time>2018-05-22T19:05:14Z</time>
      </trkpt>
      <trkpt lat="47.97679" lon="-0.68063">
        <ele>65.9</ele>
        <time>2018-05-22T19:05:18Z</time>
      </trkpt>
      <trkpt lat="47.97691" lon="-0.68099">
        <ele>66.2</ele>
        <time>2018-05-22T19:05:22Z</time>
      </trkpt>
      <trkpt lat="47.97701" lon="-0.6813">
        <ele>66.7</ele>
        <time>2018-05-22T19:05:26Z</time>
      </trkpt>
      <trkpt lat="47.97711" lon="-0.6816">
        <ele>67.3</ele>
        <time>2018-05-22T19:05:30Z</time>
      </trkpt>
      <trkpt lat="47.97721" lon="-0.68189">
        <ele>67</ele>
        <time>2018-05-22T19:05:34Z</time>
      </trkpt>
      <trkpt lat="47.97731" lon="-0.68219">
        <ele>67</ele>
        <time>2018-05-22T19:05:38Z</time>
      </trkpt>
      <trkpt lat="47.97742" lon="-0.68249">
        <ele>67</ele>
        <time>2018-05-22T19:05:42Z</time>
      </trkpt>
      <trkpt lat="47.97753" lon="-0.68281">
        <ele>66</ele>
        <time>2018-05-22T19:05:46Z</time>
      </trkpt>
      <trkpt lat="47.97764" lon="-0.68315">
        <ele>65.8</ele>
        <time>2018-05-22T19:05:50Z</time>
      </trkpt>
      <trkpt lat="47.97777" lon="-0.68351">
        <ele>64.4</ele>
        <time>2018-05-22T19:05:54Z</time>
      </trkpt>
      <trkpt lat="47.97789" lon="-0.68388">
        <ele>64.4</ele>
        <time>2018-05-22T19:05:58Z</time>
      </trkpt>
      <trkpt lat="47.97803" lon="-0.68426">
        <ele>63.6</ele>
        <time>2018-05-22T19:06:02Z</time>
      </trkpt>
      <trkpt lat="47.97817" lon="-0.68465">
        <ele>61.9</ele>
        <time>2018-05-22T19:06:06Z</time>
      </trkpt>
      <trkpt lat="47.97831" lon="-0.68508">
        <ele>60.6</ele>
        <time>2018-05-22T19:06:10Z</time>
      </trkpt>
      <trkpt lat="47.97847" lon="-0.68553">
        <ele>59.6</ele>
        <time>2018-05-22T19:06:14Z</time>
      </trkpt>
      <trkpt lat="47.97863" lon="-0.686">
        <ele>57.4</ele>
        <time>2018-05-22T19:06:18Z</time>
      </trkpt>
      <trkpt lat="47.97879" lon="-0.6865">
        <ele>54.9</ele>
        <time>2018-05-22T19:06:22Z</time>
      </trkpt>
      <trkpt lat="47.97896" lon="-0.687">
        <ele>53</ele>
        <time>2018-05-22T19:06:26Z</time>
      </trkpt>
      <trkpt lat="47.97914" lon="-0.68752">
        <ele>50.8</ele>
        <time>2018-05-22T19:06:30Z</time>
      </trkpt>
      <trkpt lat="47.97933" lon="-0.68807">
        <ele>48.9</ele>
        <time>2018-05-22T19:06:34Z</time>
      </trkpt>
      <trkpt lat="47.97952" lon="-0.68863">
        <ele>47.2</ele>
        <time>2018-05-22T19:06:38Z</time>
      </trkpt>
      <trkpt lat="47.9797" lon="-0.68917">
        <ele>46.8</ele>
        <time>2018-05-22T19:06:42Z</time>
      </trkpt>
      <trkpt lat="47.97986" lon="-0.68964">
        <ele>46.5</ele>
        <time>2018-05-22T19:06:46Z</time>
      </trkpt>
      <trkpt lat="47.98001" lon="-0.69005">
        <ele>46.8</ele>
        <time>2018-05-22T19:06:50Z</time>
      </trkpt>
      <trkpt lat="47.98013" lon="-0.69042">
        <ele>46.2</ele>
        <time>2018-05-22T19:06:54Z</time>
      </trkpt>
      <trkpt lat="47.98025" lon="-0.69075">
        <ele>47.6</ele>
        <time>2018-05-22T19:06:58Z</time>
      </trkpt>
      <trkpt lat="47.98036" lon="-0.69106">
        <ele>47.1</ele>
        <time>2018-05-22T19:07:02Z</time>
      </trkpt>
      <trkpt lat="47.98046" lon="-0.69135">
        <ele>47</ele>
        <time>2018-05-22T19:07:06Z</time>
      </trkpt>
      <trkpt lat="47.98056" lon="-0.69158">
        <ele>48.4</ele>
        <time>2018-05-22T19:07:10Z</time>
      </trkpt>
      <trkpt lat="47.98065" lon="-0.69179">
        <ele>48.9</ele>
        <time>2018-05-22T19:07:14Z</time>
      </trkpt>
      <trkpt lat="47.98072" lon="-0.69198">
        <ele>49.6</ele>
        <time>2018-05-22T19:07:18Z</time>
      </trkpt>
      <trkpt lat="47.98078" lon="-0.69216">
        <ele>50.9</ele>
        <time>2018-05-22T19:07:22Z</time>
      </trkpt>
      <trkpt lat="47.98085" lon="-0.69231">
        <ele>51.4</ele>
        <time>2018-05-22T19:07:26Z</time>
      </trkpt>
      <trkpt lat="47.98092" lon="-0.69245">
        <ele>52</ele>
        <time>2018-05-22T19:07:30Z</time>
      </trkpt>
      <trkpt lat="47.98097" lon="-0.69261">
        <ele>53</ele>
        <time>2018-05-22T19:07:34Z</time>
      </trkpt>
      <trkpt lat="47.98102" lon="-0.69277">
        <ele>53.9</ele>
        <time>2018-05-22T19:07:38Z</time>
      </trkpt>
      <trkpt lat="47.98106" lon="-0.69294">
        <ele>54.1</ele>
        <time>2018-05-22T19:07:42Z</time>
      </trkpt>
      <trkpt lat="47.98112" lon="-0.69309">
        <ele>54.2</ele>
        <time>2018-05-22T19:07:46Z</time>
      </trkpt>
      <trkpt lat="47.98118" lon="-0.69326">
        <ele>55.1</ele>
        <time>2018-05-22T19:07:50Z</time>
      </trkpt>
      <trkpt lat="47.98122" lon="-0.69342">
        <ele>56.3</ele>
        <time>2018-05-22T19:07:54Z</time>
      </trkpt>
      <trkpt lat="47.98127" lon="-0.69359">
        <ele>57.3</ele>
        <time>2018-05-22T19:07:58Z</time>
      </trkpt>
      <trkpt lat="47.98132" lon="-0.69373">
        <ele>58</ele>
        <time>2018-05-22T19:08:02Z</time>
      </trkpt>
      <trkpt lat="47.98138" lon="-0.69388">
        <ele>59</ele>
        <time>2018-05-22T19:08:06Z</time>
      </trkpt>
      <trkpt lat="47.98143" lon="-0.69403">
        <ele>60.3</ele>
        <time>2018-05-22T19:08:10Z</time>
      </trkpt>
      <trkpt lat="47.98149" lon="-0.69416">
        <ele>61.3</ele>
        <time>2018-05-22T19:08:14Z</time>
      </trkpt>
      <trkpt lat="47.98154" lon="-0.69429">
        <ele>62</ele>
        <time>2018-05-22T19:08:18Z</time>
      </trkpt>
      <trkpt lat="47.9816" lon="-0.69442">
        <ele>62.7</ele>
        <time>2018-05-22T19:08:22Z</time>
      </trkpt>
      <trkpt lat="47.98165" lon="-0.69456">
        <ele>63</ele>
        <time>2018-05-22T19:08:26Z</time>
      </trkpt>
      <trkpt lat="47.98171" lon="-0.69468">
        <ele>63.3</ele>
        <time>2018-05-22T19:08:30Z</time>
      </trkpt>
      <trkpt lat="47.98177" lon="-0.6948">
        <ele>64.2</ele>
        <time>2018-05-22T19:08:34Z</time>
      </trkpt>
      <trkpt lat="47.98183" lon="-0.69491">
        <ele>65.1</ele>
        <time>2018-05-22T19:08:38Z</time>
      </trkpt>
      <trkpt lat="47.98188" lon="-0.69503">
        <ele>65.9</ele>
        <time>2018-05-22T19:08:42Z</time>
      </trkpt>
      <trkpt lat="47.98194" lon="-0.69515">
        <ele>66.5</ele>
        <time>2018-05-22T19:08:46Z</time>
      </trkpt>
      <trkpt lat="47.98199" lon="-0.69528">
        <ele>67</ele>
        <time>2018-05-22T19:08:50Z</time>
      </trkpt>
      <trkpt lat="47.98204" lon="-0.6954">
        <ele>67.4</ele>
        <time>2018-05-22T19:08:54Z</time>
      </trkpt>
      <trkpt lat="47.9821" lon="-0.69552">
        <ele>67.9</ele>
        <time>2018-05-22T19:08:58Z</time>
      </trkpt>
      <trkpt lat="47.98215" lon="-0.69564">
        <ele>68.4</ele>
        <time>2018-05-22T19:09:02Z</time>
      </trkpt>
      <trkpt lat="47.98221" lon="-0.69576">
        <ele>68.8</ele>
        <time>2018-05-22T19:09:06Z</time>
      </trkpt>
      <trkpt lat="47.98227" lon="-0.69589">
        <ele>69.3</ele>
        <time>2018-05-22T19:09:10Z</time>
      </trkpt>
      <trkpt lat="47.98233" lon="-0.69601">
        <ele>70</ele>
        <time>2018-05-22T19:09:14Z</time>
      </trkpt>
      <trkpt lat="47.98238" lon="-0.69612">
        <ele>70.5</ele>
        <time>2018-05-22T19:09:18Z</time>
      </trkpt>
      <trkpt lat="47.98244" lon="-0.69625">
        <ele>70.7</ele>
        <time>2018-05-22T19:09:22Z</time>
      </trkpt>
      <trkpt lat="47.98249" lon="-0.69637">
        <ele>71</ele>
        <time>2018-05-22T19:09:26Z</time>
      </trkpt>
      <trkpt lat="47.98255" lon="-0.69649">
        <ele>71.4</ele>
        <time>2018-05-22T19:09:30Z</time>
      </trkpt>
      <trkpt lat="47.9826" lon="-0.69662">
        <ele>71.8</ele>
        <time>2018-05-22T19:09:34Z</time>
      </trkpt>
      <trkpt lat="47.98266" lon="-0.69675">
        <ele>72.3</ele>
        <time>2018-05-22T19:09:38Z</time>
      </trkpt>
      <trkpt lat="47.98272" lon="-0.69687">
        <ele>72.7</ele>
        <time>2018-05-22T19:09:42Z</time>
      </trkpt>
      <trkpt lat="47.98278" lon="-0.697">
        <ele>73.2</ele>
        <time>2018-05-22T19:09:46Z</time>
      </trkpt>
      <trkpt lat="47.98284" lon="-0.69712">
        <ele>73.6</ele>
        <time>2018-05-22T19:09:50Z</time>
      </trkpt>
      <trkpt lat="47.98289" lon="-0.69724">
        <ele>74.1</ele>
        <time>2018-05-22T19:09:54Z</time>
      </trkpt>
      <trkpt lat="47.98295" lon="-0.69736">
        <ele>74.5</ele>
        <time>2018-05-22T19:09:58Z</time>
      </trkpt>
      <trkpt lat="47.98301" lon="-0.69748">
        <ele>74.9</ele>
        <time>2018-05-22T19:10:02Z</time>
      </trkpt>
      <trkpt lat="47.98307" lon="-0.69761">
        <ele>75.4</ele>
        <time>2018-05-22T19:10:06Z</time>
      </trkpt>
      <trkpt lat="47.98313" lon="-0.69776">
        <ele>75.7</ele>
        <time>2018-05-22T19:10:10Z</time>
      </trkpt>
      <trkpt lat="47.98319" lon="-0.6979">
        <ele>76</ele>
        <time>2018-05-22T19:10:14Z</time>
      </trkpt>
      <trkpt lat="47.98325" lon="-0.69804">
        <ele>76.3</ele>
        <time>2018-05-22T19:10:18Z</time>
      </trkpt>
      <trkpt lat="47.98331" lon="-0.69818">
        <ele>76.6</ele>
        <time>2018-05-22T19:10:22Z</time>
      </trkpt>
      <trkpt lat="47.98337" lon="-0.69831">
        <ele>76.8</ele>
        <time>2018-05-22T19:10:26Z</time>
      </trkpt>
      <trkpt lat="47.98342" lon="-0.69845">
        <ele>77.1</ele>
        <time>2018-05-22T19:10:30Z</time>
      </trkpt>
      <trkpt lat="47.98349" lon="-0.6986">
        <ele>77.4</ele>
        <time>2018-05-22T19:10:34Z</time>
      </trkpt>
      <trkpt lat="47.98355" lon="-0.69874">
        <ele>77.6</ele>
        <time>2018-05-22T19:10:38Z</time>
      </trkpt>
      <trkpt lat="47.98362" lon="-0.69888">
        <ele>78</ele>
        <time>2018-05-22T19:10:42Z</time>
      </trkpt>
      <trkpt lat="47.98368" lon="-0.69902">
        <ele>78.5</ele>
        <time>2018-05-22T19:10:46Z</time>
      </trkpt>
      <trkpt lat="47.98375" lon="-0.69916">
        <ele>79</ele>
        <time>2018-05-22T19:10:50Z</time>
      </trkpt>
      <trkpt lat="47.98381" lon="-0.69929">
        <ele>79.5</ele>
        <time>2018-05-22T19:10:54Z</time>
      </trkpt>
      <trkpt lat="47.98387" lon="-0.69943">
        <ele>80</ele>
        <time>2018-05-22T19:10:58Z</time>
      </trkpt>
      <trkpt lat="47.98394" lon="-0.69957">
        <ele>80</ele>
        <time>2018-05-22T19:11:02Z</time>
      </trkpt>
      <trkpt lat="47.984" lon="-0.6997">
        <ele>80</ele>
        <time>2018-05-22T19:11:06Z</time>
      </trkpt>
      <trkpt lat="47.98406" lon="-0.69985">
        <ele>80.4</ele>
        <time>2018-05-22T19:11:10Z</time>
      </trkpt>
      <trkpt lat="47.98412" lon="-0.69999">
        <ele>81</ele>
        <time>2018-05-22T19:11:14Z</time>
      </trkpt>
      <trkpt lat="47.98419" lon="-0.70013">
        <ele>81.5</ele>
        <time>2018-05-22T19:11:18Z</time>
      </trkpt>
      <trkpt lat="47.98426" lon="-0.70027">
        <ele>82</ele>
        <time>2018-05-22T19:11:22Z</time>
      </trkpt>
      <trkpt lat="47.98432" lon="-0.70042">
        <ele>82.5</ele>
        <time>2018-05-22T19:11:26Z</time>
      </trkpt>
      <trkpt lat="47.98438" lon="-0.70055">
        <ele>83</ele>
        <time>2018-05-22T19:11:30Z</time>
      </trkpt>
      <trkpt lat="47.98445" lon="-0.7007">
        <ele>83.5</ele>
        <time>2018-05-22T19:11:34Z</time>
      </trkpt>
      <trkpt lat="47.98451" lon="-0.70085">
        <ele>84</ele>
        <time>2018-05-22T19:11:38Z</time>
      </trkpt>
      <trkpt lat="47.98457" lon="-0.701">
        <ele>84.3</ele>
        <time>2018-05-22T19:11:42Z</time>
      </trkpt>
      <trkpt lat="47.98463" lon="-0.70114">
        <ele>84.8</ele>
        <time>2018-05-22T19:11:46Z</time>
      </trkpt>
      <trkpt lat="47.98469" lon="-0.70129">
        <ele>85.5</ele>
        <time>2018-05-22T19:11:50Z</time>
      </trkpt>
      <trkpt lat="47.98475" lon="-0.70143">
        <ele>86.2</ele>
        <time>2018-05-22T19:11:54Z</time>
      </trkpt>
      <trkpt lat="47.98481" lon="-0.70157">
        <ele>86.8</ele>
        <time>2018-05-22T19:11:58Z</time>
      </trkpt>
      <trkpt lat="47.98487" lon="-0.70171">
        <ele>87.1</ele>
        <time>2018-05-22T19:12:02Z</time>
      </trkpt>
      <trkpt lat="47.98493" lon="-0.70184">
        <ele>87.6</ele>
        <time>2018-05-22T19:12:06Z</time>
      </trkpt>
      <trkpt lat="47.985" lon="-0.70199">
        <ele>88.1</ele>
        <time>2018-05-22T19:12:10Z</time>
      </trkpt>
      <trkpt lat="47.98507" lon="-0.70216">
        <ele>88.8</ele>
        <time>2018-05-22T19:12:14Z</time>
      </trkpt>
      <trkpt lat="47.98515" lon="-0.70233">
        <ele>89.4</ele>
        <time>2018-05-22T19:12:18Z</time>
      </trkpt>
      <trkpt lat="47.98522" lon="-0.70249">
        <ele>90</ele>
        <time>2018-05-22T19:12:22Z</time>
      </trkpt>
      <trkpt lat="47.98529" lon="-0.70264">
        <ele>90</ele>
        <time>2018-05-22T19:12:26Z</time>
      </trkpt>
      <trkpt lat="47.98536" lon="-0.70279">
        <ele>90.3</ele>
        <time>2018-05-22T19:12:30Z</time>
      </trkpt>
      <trkpt lat="47.98542" lon="-0.70293">
        <ele>90.8</ele>
        <time>2018-05-22T19:12:34Z</time>
      </trkpt>
      <trkpt lat="47.98548" lon="-0.70308">
        <ele>91.1</ele>
        <time>2018-05-22T19:12:38Z</time>
      </trkpt>
      <trkpt lat="47.98555" lon="-0.70321">
        <ele>91.6</ele>
        <time>2018-05-22T19:12:42Z</time>
      </trkpt>
      <trkpt lat="47.98561" lon="-0.70335">
        <ele>92.3</ele>
        <time>2018-05-22T19:12:46Z</time>
      </trkpt>
      <trkpt lat="47.98568" lon="-0.70349">
        <ele>92.8</ele>
        <time>2018-05-22T19:12:50Z</time>
      </trkpt>
      <trkpt lat="47.98574" lon="-0.70364">
        <ele>93.1</ele>
        <time>2018-05-22T19:12:54Z</time>
      </trkpt>
      <trkpt lat="47.9858" lon="-0.70377">
        <ele>93.5</ele>
        <time>2018-05-22T19:12:58Z</time>
      </trkpt>
      <trkpt lat="47.98586" lon="-0.70391">
        <ele>94</ele>
        <time>2018-05-22T19:13:02Z</time>
      </trkpt>
      <trkpt lat="47.98593" lon="-0.70405">
        <ele>94</ele>
        <time>2018-05-22T19:13:06Z</time>
      </trkpt>
      <trkpt lat="47.98599" lon="-0.7042">
        <ele>94</ele>
        <time>2018-05-22T19:13:10Z</time>
      </trkpt>
      <trkpt lat="47.98606" lon="-0.70434">
        <ele>94</ele>
        <time>2018-05-22T19:13:14Z</time>
      </trkpt>
      <trkpt lat="47.98613" lon="-0.7045">
        <ele>94</ele>
        <time>2018-05-22T19:13:18Z</time>
      </trkpt>
      <trkpt lat="47.9862" lon="-0.70468">
        <ele>94</ele>
        <time>2018-05-22T19:13:22Z</time>
      </trkpt>
      <trkpt lat="47.9863" lon="-0.70488">
        <ele>94</ele>
        <time>2018-05-22T19:13:26Z</time>
      </trkpt>
      <trkpt lat="47.9864" lon="-0.70511">
        <ele>94</ele>
        <time>2018-05-22T19:13:30Z</time>
      </trkpt>
      <trkpt lat="47.98651" lon="-0.70536">
        <ele>93.7</ele>
        <time>2018-05-22T19:13:34Z</time>
      </trkpt>
      <trkpt lat="47.98662" lon="-0.70562">
        <ele>93</ele>
        <time>2018-05-22T19:13:38Z</time>
      </trkpt>
      <trkpt lat="47.98674" lon="-0.70585">
        <ele>93</ele>
        <time>2018-05-22T19:13:42Z</time>
      </trkpt>
      <trkpt lat="47.98685" lon="-0.70611">
        <ele>93</ele>
        <time>2018-05-22T19:13:46Z</time>
      </trkpt>
      <trkpt lat="47.98696" lon="-0.70636">
        <ele>93.1</ele>
        <time>2018-05-22T19:13:50Z</time>
      </trkpt>
      <trkpt lat="47.98706" lon="-0.70661">
        <ele>93.4</ele>
        <time>2018-05-22T19:13:54Z</time>
      </trkpt>
      <trkpt lat="47.98718" lon="-0.70686">
        <ele>93.3</ele>
        <time>2018-05-22T19:13:58Z</time>
      </trkpt>
      <trkpt lat="47.98729" lon="-0.70711">
        <ele>93.3</ele>
        <time>2018-05-22T19:14:02Z</time>
      </trkpt>
      <trkpt lat="47.9874" lon="-0.70736">
        <ele>93.3</ele>
        <time>2018-05-22T19:14:06Z</time>
      </trkpt>
      <trkpt lat="47.98754" lon="-0.70757">
        <ele>93.3</ele>
        <time>2018-05-22T19:14:10Z</time>
      </trkpt>
      <trkpt lat="47.98771" lon="-0.70765">
        <ele>93.9</ele>
        <time>2018-05-22T19:14:14Z</time>
      </trkpt>
      <trkpt lat="47.98788" lon="-0.70774">
        <ele>94</ele>
        <time>2018-05-22T19:14:18Z</time>
      </trkpt>
      <trkpt lat="47.98806" lon="-0.7078">
        <ele>94</ele>
        <time>2018-05-22T19:14:22Z</time>
      </trkpt>
      <trkpt lat="47.98824" lon="-0.70787">
        <ele>94</ele>
        <time>2018-05-22T19:14:26Z</time>
      </trkpt>
      <trkpt lat="47.98841" lon="-0.70793">
        <ele>94</ele>
        <time>2018-05-22T19:14:30Z</time>
      </trkpt>
      <trkpt lat="47.9886" lon="-0.708">
        <ele>94</ele>
        <time>2018-05-22T19:14:34Z</time>
      </trkpt>
      <trkpt lat="47.98879" lon="-0.70816">
        <ele>93.3</ele>
        <time>2018-05-22T19:14:38Z</time>
      </trkpt>
      <trkpt lat="47.98899" lon="-0.70835">
        <ele>92.2</ele>
        <time>2018-05-22T19:14:42Z</time>
      </trkpt>
      <trkpt lat="47.98917" lon="-0.7086">
        <ele>90</ele>
        <time>2018-05-22T19:14:46Z</time>
      </trkpt>
      <trkpt lat="47.98935" lon="-0.70888">
        <ele>88</ele>
        <time>2018-05-22T19:14:50Z</time>
      </trkpt>
      <trkpt lat="47.9896" lon="-0.70914">
        <ele>86.3</ele>
        <time>2018-05-22T19:14:54Z</time>
      </trkpt>
      <trkpt lat="47.98987" lon="-0.70942">
        <ele>83.4</ele>
        <time>2018-05-22T19:14:58Z</time>
      </trkpt>
      <trkpt lat="47.99013" lon="-0.70969">
        <ele>81.5</ele>
        <time>2018-05-22T19:15:02Z</time>
      </trkpt>
      <trkpt lat="47.99039" lon="-0.70995">
        <ele>79.2</ele>
        <time>2018-05-22T19:15:06Z</time>
      </trkpt>
      <trkpt lat="47.99065" lon="-0.71025">
        <ele>76.4</ele>
        <time>2018-05-22T19:15:10Z</time>
      </trkpt>
      <trkpt lat="47.9909" lon="-0.71051">
        <ele>74.1</ele>
        <time>2018-05-22T19:15:14Z</time>
      </trkpt>
      <trkpt lat="47.99113" lon="-0.71079">
        <ele>73.1</ele>
        <time>2018-05-22T19:15:18Z</time>
      </trkpt>
      <trkpt lat="47.99134" lon="-0.71106">
        <ele>72.2</ele>
        <time>2018-05-22T19:15:22Z</time>
      </trkpt>
      <trkpt lat="47.99152" lon="-0.7113">
        <ele>71.1</ele>
        <time>2018-05-22T19:15:26Z</time>
      </trkpt>
      <trkpt lat="47.99167" lon="-0.71157">
        <ele>70</ele>
        <time>2018-05-22T19:15:30Z</time>
      </trkpt>
      <trkpt lat="47.99181" lon="-0.71182">
        <ele>69.5</ele>
        <time>2018-05-22T19:15:34Z</time>
      </trkpt>
      <trkpt lat="47.99196" lon="-0.71207">
        <ele>68.6</ele>
        <time>2018-05-22T19:15:38Z</time>
      </trkpt>
      <trkpt lat="47.99212" lon="-0.71227">
        <ele>68.7</ele>
        <time>2018-05-22T19:15:42Z</time>
      </trkpt>
      <trkpt lat="47.99225" lon="-0.71239">
        <ele>68.9</ele>
        <time>2018-05-22T19:15:46Z</time>
      </trkpt>
      <trkpt lat="47.99238" lon="-0.71244">
        <ele>68.6</ele>
        <time>2018-05-22T19:15:50Z</time>
      </trkpt>
      <trkpt lat="47.99254" lon="-0.71246">
        <ele>68.3</ele>
        <time>2018-05-22T19:15:54Z</time>
      </trkpt>
      <trkpt lat="47.99271" lon="-0.71246">
        <ele>68.7</ele>
        <time>2018-05-22T19:15:58Z</time>
      </trkpt>
      <trkpt lat="47.99288" lon="-0.71252">
        <ele>68.8</ele>
        <time>2018-05-22T19:16:02Z</time>
      </trkpt>
      <trkpt lat="47.99303" lon="-0.7126">
        <ele>68.8</ele>
        <time>2018-05-22T19:16:06Z</time>
      </trkpt>
      <trkpt lat="47.9932" lon="-0.71265">
        <ele>68.6</ele>
        <time>2018-05-22T19:16:10Z</time>
      </trkpt>
      <trkpt lat="47.99336" lon="-0.71267">
        <ele>67.8</ele>
        <time>2018-05-22T19:16:14Z</time>
      </trkpt>
      <trkpt lat="47.99355" lon="-0.71276">
        <ele>66.5</ele>
        <time>2018-05-22T19:16:18Z</time>
      </trkpt>
      <trkpt lat="47.9937" lon="-0.71292">
        <ele>66.5</ele>
        <time>2018-05-22T19:16:22Z</time>
      </trkpt>
      <trkpt lat="47.99389" lon="-0.71303">
        <ele>65.1</ele>
        <time>2018-05-22T19:16:26Z</time>
      </trkpt>
      <trkpt lat="47.99408" lon="-0.71315">
        <ele>65.3</ele>
        <time>2018-05-22T19:16:30Z</time>
      </trkpt>
      <trkpt lat="47.99417" lon="-0.71341">
        <ele>65.3</ele>
        <time>2018-05-22T19:16:34Z</time>
      </trkpt>
      <trkpt lat="47.99413" lon="-0.71375">
        <ele>66.7</ele>
        <time>2018-05-22T19:16:38Z</time>
      </trkpt>
      <trkpt lat="47.9941" lon="-0.71401">
        <ele>67.6</ele>
        <time>2018-05-22T19:16:42Z</time>
      </trkpt>
      <trkpt lat="47.99407" lon="-0.7142">
        <ele>68</ele>
        <time>2018-05-22T19:16:46Z</time>
      </trkpt>
      <trkpt lat="47.99408" lon="-0.71434">
        <ele>68.2</ele>
        <time>2018-05-22T19:16:50Z</time>
      </trkpt>
      <trkpt lat="47.99411" lon="-0.71449">
        <ele>68.2</ele>
        <time>2018-05-22T19:16:54Z</time>
      </trkpt>
      <trkpt lat="47.99415" lon="-0.71464">
        <ele>68.1</ele>
        <time>2018-05-22T19:16:58Z</time>
      </trkpt>
      <trkpt lat="47.99422" lon="-0.71474">
        <ele>67.8</ele>
        <time>2018-05-22T19:17:02Z</time>
      </trkpt>
      <trkpt lat="47.99437" lon="-0.7148">
        <ele>67.4</ele>
        <time>2018-05-22T19:17:06Z</time>
      </trkpt>
      <trkpt lat="47.99455" lon="-0.71486">
        <ele>66.6</ele>
        <time>2018-05-22T19:17:10Z</time>
      </trkpt>
      <trkpt lat="47.99477" lon="-0.71494">
        <ele>65.7</ele>
        <time>2018-05-22T19:17:14Z</time>
      </trkpt>
      <trkpt lat="47.99501" lon="-0.71503">
        <ele>64</ele>
        <time>2018-05-22T19:17:18Z</time>
      </trkpt>
      <trkpt lat="47.99526" lon="-0.71511">
        <ele>63.1</ele>
        <time>2018-05-22T19:17:22Z</time>
      </trkpt>
      <trkpt lat="47.99551" lon="-0.71521">
        <ele>62.2</ele>
        <time>2018-05-22T19:17:26Z</time>
      </trkpt>
      <trkpt lat="47.99575" lon="-0.7153">
        <ele>61.4</ele>
        <time>2018-05-22T19:17:30Z</time>
      </trkpt>
      <trkpt lat="47.99598" lon="-0.71538">
        <ele>61.2</ele>
        <time>2018-05-22T19:17:34Z</time>
      </trkpt>
      <trkpt lat="47.99621" lon="-0.71543">
        <ele>60.6</ele>
        <time>2018-05-22T19:17:38Z</time>
      </trkpt>
      <trkpt lat="47.99643" lon="-0.71551">
        <ele>60</ele>
        <time>2018-05-22T19:17:42Z</time>
      </trkpt>
      <trkpt lat="47.99666" lon="-0.71563">
        <ele>60.3</ele>
        <time>2018-05-22T19:17:46Z</time>
      </trkpt>
      <trkpt lat="47.9969" lon="-0.71572">
        <ele>59.6</ele>
        <time>2018-05-22T19:17:50Z</time>
      </trkpt>
      <trkpt lat="47.99713" lon="-0.71586">
        <ele>58.4</ele>
        <time>2018-05-22T19:17:54Z</time>
      </trkpt>
      <trkpt lat="47.99735" lon="-0.71603">
        <ele>57.8</ele>
        <time>2018-05-22T19:17:58Z</time>
      </trkpt>
      <trkpt lat="47.99756" lon="-0.7162">
        <ele>57.6</ele>
        <time>2018-05-22T19:18:02Z</time>
      </trkpt>
      <trkpt lat="47.99776" lon="-0.71636">
        <ele>57.2</ele>
        <time>2018-05-22T19:18:06Z</time>
      </trkpt>
      <trkpt lat="47.99796" lon="-0.71649">
        <ele>56.9</ele>
        <time>2018-05-22T19:18:10Z</time>
      </trkpt>
      <trkpt lat="47.99818" lon="-0.71657">
        <ele>55.9</ele>
        <time>2018-05-22T19:18:14Z</time>
      </trkpt>
      <trkpt lat="47.99839" lon="-0.71663">
        <ele>54.9</ele>
        <time>2018-05-22T19:18:18Z</time>
      </trkpt>
      <trkpt lat="47.9986" lon="-0.7167">
        <ele>54.2</ele>
        <time>2018-05-22T19:18:22Z</time>
      </trkpt>
      <trkpt lat="47.99881" lon="-0.71676">
        <ele>54.1</ele>
        <time>2018-05-22T19:18:26Z</time>
      </trkpt>
      <trkpt lat="47.99895" lon="-0.71694">
        <ele>53.8</ele>
        <time>2018-05-22T19:18:30Z</time>
      </trkpt>
      <trkpt lat="47.99898" lon="-0.7172">
        <ele>53.1</ele>
        <time>2018-05-22T19:18:34Z</time>
      </trkpt>
      <trkpt lat="47.99899" lon="-0.71746">
        <ele>52.7</ele>
        <time>2018-05-22T19:18:38Z</time>
      </trkpt>
      <trkpt lat="47.99899" lon="-0.71773">
        <ele>52.1</ele>
        <time>2018-05-22T19:18:42Z</time>
      </trkpt>
      <trkpt lat="47.99899" lon="-0.71802">
        <ele>51.7</ele>
        <time>2018-05-22T19:18:46Z</time>
      </trkpt>
      <trkpt lat="47.99899" lon="-0.71833">
        <ele>51.6</ele>
        <time>2018-05-22T19:18:50Z</time>
      </trkpt>
      <trkpt lat="47.99898" lon="-0.71862">
        <ele>50.7</ele>
        <time>2018-05-22T19:18:54Z</time>
      </trkpt>
      <trkpt lat="47.99899" lon="-0.7189">
        <ele>51</ele>
        <time>2018-05-22T19:18:58Z</time>
      </trkpt>
      <trkpt lat="47.99901" lon="-0.71917">
        <ele>50.4</ele>
        <time>2018-05-22T19:19:02Z</time>
      </trkpt>
      <trkpt lat="47.9991" lon="-0.71936">
        <ele>50.2</ele>
        <time>2018-05-22T19:19:06Z</time>
      </trkpt>
      <trkpt lat="47.99921" lon="-0.71931">
        <ele>50.4</ele>
        <time>2018-05-22T19:19:10Z</time>
      </trkpt>
      <trkpt lat="47.99932" lon="-0.7194">
        <ele>50.1</ele>
        <time>2018-05-22T19:19:14Z</time>
      </trkpt>
      <trkpt lat="47.99939" lon="-0.7195">
        <ele>49.6</ele>
        <time>2018-05-22T19:19:18Z</time>
      </trkpt>
      <trkpt lat="47.9994" lon="-0.71951">
        <ele>49.6</ele>
        <time>2018-05-22T19:19:22Z</time>
      </trkpt>
      <trkpt lat="47.99941" lon="-0.71951">
        <ele>49.5</ele>
        <time>2018-05-22T19:19:30Z</time>
      </trkpt>
      <trkpt lat="47.99942" lon="-0.71953">
        <ele>49.4</ele>
        <time>2018-05-22T19:19:58Z</time>
      </trkpt>
    </trkseg>
  </trk>
</gpx>